Data for 01/20/2009

Time Sea-Level Adjusted Pressure Absolute Pressure Temperature Relative Humidity Dew Point Precipitation   
(mb) (inHg) (mb) (inHg) (C) (F) (%) (C) (F) (mm) (in)
00:01 1034 30.53 863 25.48 -8.5 16.7 66 -13.7 7.3 0
00:02 1034 30.53 863 25.48 -8.5 16.6 66 -13.9 7 0
00:03 1034 30.53 863 25.48 -8.7 16.4 67 -13.7 7.3 0
00:04 1034 30.53 863 25.48 -8.5 16.7 68 -13.4 7.8 0
00:05 1034 30.53 863 25.48 -8 17.5 62 -14 6.8 0
00:06 1034 30.53 863 25.48 -8.3 17.1 64 -14 6.9 0
00:07 1034 30.53 863 25.48 -8.7 16.3 65 -14.1 6.5 0
00:08 1034 30.53 863 25.48 -9.2 15.5 67 -14.3 6.3 0
00:09 1034 30.53 863 25.48 -9.4 15 69 -14.2 6.5 0
00:10 1034 30.53 863 25.48 -9.6 14.8 70 -14.1 6.7 0
00:11 1034 30.53 863 25.48 -9.6 14.7 68 -14.5 6 0
00:12 1034 30.53 863 25.48 -9.9 14.1 71 -14.3 6.3 0
00:13 1034 30.53 863 25.48 -9.9 14.3 71 -14.1 6.6 0
00:14 1034 30.53 863 25.48 -9.6 14.7 69 -14.2 6.4 0
00:15 1034 30.53 863 25.48 -9.6 14.8 69 -14.3 6.3 0
00:16 1034 30.53 863 25.48 -9.8 14.4 69 -14.4 6.1 0
00:17 1034 30.53 863 25.48 -10.2 13.7 71 -14.5 6 0
00:18 1034 30.53 863 25.48 -10.4 13.3 73 -14.4 6 0
00:19 1034 30.53 863 25.48 -10.5 13.1 75 -14.1 6.6 0
00:20 1034 30.53 863 25.48 -10.4 13.3 74 -14.2 6.5 0
00:21 1034 30.53 863 25.48 -10.4 13.3 75 -14.1 6.7 0
00:22 1034 30.53 863 25.48 -10.3 13.4 74 -14.1 6.6 0
00:23 1034 30.53 863 25.48 -10.4 13.4 73 -14.3 6.2 0
00:24 1034 30.53 863 25.48 -10.6 13 73 -14.5 6 0
00:25 1034 30.53 863 25.48 -10.7 12.7 75 -14.4 6 0
00:26 1034 30.53 863 25.48 -10.8 12.5 75 -14.4 6 0
00:27 1034 30.53 863 25.48 -10.9 12.4 75 -14.5 5.9 0
00:28 1034 30.53 863 25.48 -11 12.3 75 -14.5 5.8 0
00:29 1034 30.53 863 25.48 -11.1 12.1 76 -14.6 5.8 0
00:30 1034 30.53 863 25.48 -11.1 12 76 -14.6 5.8 0
00:31 1034 30.53 863 25.48 -11.1 12.1 77 -14.4 6.2 0
00:32 1034 30.53 863 25.48 -10.8 12.5 76 -14.3 6.2 0
00:33 1034 30.53 863 25.48 -10.8 12.5 75 -14.4 6.1 0
00:34 1034 30.53 863 25.48 -10.8 12.6 76 -14.2 6.5 0
00:35 1034 30.53 863 25.48 -10.5 13.1 76 -13.9 6.9 0
00:36 1034 30.53 863 25.48 -10 13.9 72 -14.2 6.4 0
00:37 1034 30.53 863 25.48 -10.2 13.7 71 -14.5 5.8 0
00:38 1034 30.53 863 25.48 -10.5 13.1 74 -14.3 6.2 0
00:39 1034 30.53 863 25.48 -10.7 12.7 74 -14.5 5.8 0
00:40 1034 30.53 863 25.48 -10.8 12.5 76 -14.3 6.2 0
00:41 1034 30.53 863 25.48 -10.8 12.6 75 -14.3 6.2 0
00:42 1034 30.53 863 25.48 -10.6 12.9 74 -14.3 6.2 0
00:43 1034 30.53 863 25.48 -10.5 13 74 -14.4 6.2 0
00:44 1034 30.53 863 25.48 -10.4 13.2 74 -14.3 6.3 0
00:45 1034 30.53 863 25.48 -10.3 13.4 72 -14.5 5.9 0
00:46 1034 30.53 863 25.48 -10.5 13.2 73 -14.5 5.9 0
00:47 1034 30.53 863 25.48 -10.6 13 73 -14.5 5.9 0
00:48 1034 30.53 863 25.48 -10.6 13 74 -14.3 6.2 0
00:49 1034 30.53 863 25.48 -10.4 13.3 73 -14.4 6.1 0
00:50 1034 30.53 863 25.48 -10.2 13.6 71 -14.5 6 0
00:51 1034 30.53 863 25.48 -10.3 13.5 71 -14.6 5.8 0
00:52 1034 30.53 863 25.48 -10.4 13.2 71 -14.7 5.5 0
00:53 1034 30.53 863 25.48 -10.7 12.8 72 -14.7 5.5 0
00:54 1034 30.53 863 25.48 -10.8 12.5 74 -14.6 5.8 0
00:55 1034 30.53 863 25.48 -10.8 12.6 74 -14.6 5.8 0
00:56 1034 30.53 863 25.48 -10.6 12.9 74 -14.4 6.1 0
00:57 1034 30.53 863 25.48 -10.4 13.3 73 -14.3 6.3 0
00:58 1034 30.53 863 25.48 -10 13.9 72 -14.1 6.6 0
00:59 1034 30.53 863 25.48 -9.7 14.5 71 -14.1 6.7 0
01:00 1033 30.5 863 25.48 -9.6 14.7 70 -14.1 6.7 0
01:01 1033 30.5 863 25.48 -9.6 14.7 70 -14.1 6.6 0
01:02 1033 30.5 863 25.48 -9.6 14.7 70 -14.1 6.7 0
01:03 1033 30.5 863 25.48 -9.6 14.8 70 -14 6.8 0
01:04 1033 30.5 863 25.48 -9.3 15.3 69 -14 6.8 0
01:05 1033 30.5 863 25.48 -9.3 15.3 68 -14.1 6.7 0
01:06 1033 30.5 863 25.48 -9.4 15.1 70 -14 6.8 0
01:07 1033 30.5 863 25.48 -9.5 15 70 -13.9 6.9 0
01:08 1033 30.5 863 25.48 -9.5 14.9 69 -14.1 6.6 0
01:09 1033 30.5 862 25.45 -9.7 14.6 69 -14.3 6.2 0
01:10 1033 30.5 862 25.45 -9.5 14.8 69 -14.2 6.5 0
01:11 1033 30.5 863 25.48 -9.3 15.4 68 -14.2 6.5 0
01:12 1033 30.5 862 25.45 -9.2 15.5 67 -14.1 6.5 0
01:13 1033 30.5 862 25.45 -9.1 15.6 66 -14.3 6.3 0
01:14 1033 30.5 862 25.45 -9.4 15.1 69 -14.1 6.7 0
01:15 1033 30.5 862 25.45 -9.5 14.9 70 -14 6.8 0
01:16 1033 30.5 862 25.45 -9.5 15 71 -13.8 7.2 0
01:17 1033 30.5 862 25.45 -9.3 15.2 71 -13.6 7.4 0
01:18 1033 30.5 862 25.45 -9.2 15.5 69 -13.8 7.2 0
01:19 1033 30.5 862 25.45 -9 15.7 69 -13.8 7.2 0
01:20 1033 30.5 862 25.45 -9.1 15.7 70 -13.7 7.4 0
01:21 1033 30.5 862 25.45 -9 15.7 69 -13.7 7.4 0
01:22 1033 30.5 862 25.45 -9 15.7 69 -13.7 7.4 0
01:23 1033 30.5 862 25.45 -9 15.7 69 -13.7 7.3 0
01:24 1033 30.5 862 25.45 -9.1 15.7 69 -13.8 7.2 0
01:25 1033 30.5 862 25.45 -9.1 15.7 69 -13.9 7.1 0
01:26 1033 30.5 862 25.45 -9.1 15.7 68 -13.8 7.1 0
01:27 1033 30.5 862 25.45 -9.2 15.5 68 -14 6.7 0
01:28 1033 30.5 862 25.45 -9.3 15.2 69 -14.1 6.7 0
01:29 1033 30.5 862 25.45 -9.5 14.8 69 -14.3 6.3 0
01:30 1033 30.5 862 25.45 -9.7 14.5 70 -14.3 6.3 0
01:31 1033 30.5 862 25.45 -9.9 14.1 71 -14.3 6.2 0
01:32 1033 30.5 862 25.45 -10.1 13.8 72 -14.3 6.3 0
01:33 1033 30.5 862 25.45 -10.2 13.7 72 -14.2 6.4 0
01:34 1033 30.5 862 25.45 -10.2 13.7 72 -14.4 6.2 0
01:35 1033 30.5 862 25.45 -10.3 13.5 71 -14.5 5.9 0
01:36 1033 30.5 862 25.45 -10.4 13.2 73 -14.4 6 0
01:37 1033 30.5 862 25.45 -10.5 13 73 -14.5 5.8 0
01:38 1033 30.5 862 25.45 -10.7 12.8 74 -14.5 5.9 0
01:39 1033 30.5 862 25.45 -10.7 12.8 74 -14.5 6 0
01:40 1033 30.5 862 25.45 -10.6 12.9 73 -14.6 5.7 0
01:41 1033 30.5 862 25.45 -10.7 12.8 74 -14.4 6.1 0
01:42 1033 30.5 862 25.45 -10.5 13.1 73 -14.4 6.1 0
01:43 1033 30.5 862 25.45 -10.3 13.4 72 -14.4 6.1 0
01:44 1033 30.5 862 25.45 -10.3 13.6 71 -14.5 5.9 0
01:45 1033 30.5 862 25.45 -10.4 13.4 72 -14.5 5.9 0
01:46 1033 30.5 862 25.45 -10.3 13.4 72 -14.4 6.1 0
01:47 1033 30.5 862 25.45 -10.2 13.6 73 -14.2 6.5 0
01:48 1033 30.5 862 25.45 -10.2 13.7 74 -14 6.8 0
01:49 1033 30.5 862 25.45 -10.1 13.9 72 -14.2 6.5 0
01:50 1033 30.5 862 25.45 -10 13.9 72 -14.2 6.5 0
01:51 1033 30.5 862 25.45 -9.9 14.2 71 -14.1 6.6 0
01:52 1033 30.5 862 25.45 -9.7 14.5 70 -14.2 6.5 0
01:53 1033 30.5 862 25.45 -9.5 14.8 70 -14 6.8 0
01:54 1033 30.5 862 25.45 -9.5 15 69 -14.2 6.5 0
01:55 1033 30.5 862 25.45 -9.5 14.8 70 -14 6.7 0
01:56 1033 30.5 862 25.45 -9.5 14.9 71 -13.9 7 0
01:57 1033 30.5 862 25.45 -9.4 15.2 70 -13.9 6.9 0
01:58 1033 30.5 862 25.45 -9.3 15.2 70 -13.8 7.1 0
01:59 1033 30.5 862 25.45 -9.2 15.4 70 -13.8 7.2 0
02:00 1033 30.5 862 25.45 -9.1 15.6 70 -13.7 7.3 0
02:01 1033 30.5 862 25.45 -9 15.8 69 -13.8 7.2 0
02:02 1033 30.5 862 25.45 -8.9 15.9 68 -13.8 7.2 0
02:03 1033 30.5 862 25.45 -8.9 16 68 -13.7 7.3 0
02:04 1033 30.5 862 25.45 -8.8 16.1 68 -13.6 7.5 0
02:05 1033 30.5 862 25.45 -8.7 16.3 67 -13.7 7.3 0
02:06 1033 30.5 862 25.45 -8.8 16.3 65 -14.3 6.3 0
02:07 1033 30.5 862 25.45 -9.2 15.5 69 -13.9 6.9 0
02:08 1033 30.5 862 25.45 -9.1 15.6 68 -13.9 6.9 0
02:09 1033 30.5 862 25.45 -9 15.9 68 -13.9 7 0
02:10 1033 30.5 862 25.45 -8.9 16 67 -13.9 7 0
02:11 1033 30.5 862 25.45 -9 15.9 67 -14.1 6.6 0
02:12 1033 30.5 862 25.45 -9.1 15.6 68 -14 6.7 0
02:13 1033 30.5 862 25.45 -9.2 15.4 67 -14.2 6.4 0
02:14 1033 30.5 862 25.45 -9.4 15 69 -14.1 6.6 0
02:15 1033 30.5 862 25.45 -9.7 14.6 69 -14.4 6.2 0
02:16 1033 30.5 862 25.45 -9.9 14.3 70 -14.3 6.3 0
02:17 1033 30.5 862 25.45 -10.1 13.7 71 -14.5 5.9 0
02:18 1033 30.5 862 25.45 -10.2 13.6 72 -14.3 6.2 0
02:19 1033 30.5 862 25.45 -10.2 13.6 72 -14.4 6.1 0
02:20 1033 30.5 862 25.45 -10.2 13.6 71 -14.5 5.9 0
02:21 1033 30.5 862 25.45 -10.4 13.2 72 -14.6 5.7 0
02:22 1033 30.5 862 25.45 -10.6 12.9 73 -14.6 5.8 0
02:23 1033 30.5 862 25.45 -10.7 12.8 73 -14.6 5.7 0
02:24 1033 30.5 862 25.45 -10.6 12.9 73 -14.6 5.7 0
02:25 1033 30.5 862 25.45 -10.6 13 73 -14.5 5.9 0
02:26 1033 30.5 862 25.45 -10.5 13.1 73 -14.4 6 0
02:27 1033 30.5 862 25.45 -10.4 13.2 73 -14.4 6.1 0
02:28 1033 30.5 862 25.45 -10.3 13.4 73 -14.3 6.3 0
02:29 1033 30.5 862 25.45 -10.1 13.8 72 -14.3 6.3 0
02:30 1033 30.5 862 25.45 -10 14 71 -14.3 6.3 0
02:31 1033 30.5 862 25.45 -10 14.1 72 -14.2 6.5 0
02:32 1033 30.5 862 25.45 -10 14 72 -14.2 6.5 0
02:33 1033 30.5 862 25.45 -9.8 14.4 71 -14.1 6.6 0
02:34 1033 30.5 862 25.45 -9.7 14.6 69 -14.3 6.3 0
02:35 1033 30.5 862 25.45 -9.7 14.5 68 -14.5 5.9 0
02:36 1033 30.5 862 25.45 -10 14.1 70 -14.5 6 0
02:37 1033 30.5 862 25.45 -10.1 13.7 71 -14.4 6 0
02:38 1033 30.5 862 25.45 -10.2 13.7 71 -14.5 5.9 0
02:39 1033 30.5 862 25.45 -10.1 13.8 70 -14.5 5.9 0
02:40 1033 30.5 862 25.45 -10.2 13.6 71 -14.5 6 0
02:41 1033 30.5 862 25.45 -10.4 13.4 72 -14.6 5.8 0
02:42 1033 30.5 862 25.45 -10.5 13.2 72 -14.6 5.8 0
02:43 1033 30.5 862 25.45 -10.4 13.2 71 -14.7 5.6 0
02:44 1033 30.5 862 25.45 -10.3 13.5 70 -14.7 5.5 0
02:45 1033 30.5 862 25.45 -10.3 13.6 69 -14.8 5.3 0
02:46 1033 30.5 862 25.45 -10.3 13.4 70 -14.8 5.3 0
02:47 1033 30.5 862 25.45 -10.5 13.2 70 -14.9 5.1 0
02:48 1033 30.5 862 25.45 -10.8 12.6 71 -15.1 4.9 0
02:49 1033 30.5 862 25.45 -10.9 12.3 75 -14.6 5.8 0
02:50 1033 30.5 862 25.45 -10.9 12.3 74 -14.7 5.5 0
02:51 1033 30.5 862 25.45 -11 12.2 74 -14.7 5.5 0
02:52 1033 30.5 862 25.45 -11 12.3 74 -14.7 5.5 0
02:53 1033 30.5 862 25.45 -10.9 12.4 74 -14.6 5.6 0
02:54 1033 30.5 862 25.45 -10.8 12.6 74 -14.6 5.7 0
02:55 1033 30.5 862 25.45 -10.7 12.8 73 -14.6 5.8 0
02:56 1033 30.5 862 25.45 -10.4 13.3 74 -14.2 6.4 0
02:57 1033 30.5 862 25.45 -9.9 14.2 71 -14.2 6.5 0
02:58 1033 30.5 862 25.45 -9.7 14.6 69 -14.3 6.2 0
02:59 1033 30.5 862 25.45 -9.8 14.4 69 -14.5 5.9 0
03:00 1033 30.5 862 25.45 -10.1 13.9 69 -14.8 5.4 0
03:01 1033 30.5 862 25.45 -10.4 13.2 70 -14.9 5.1 0
03:02 1033 30.5 862 25.45 -10.7 12.7 71 -14.9 5.1 0
03:03 1033 30.5 862 25.45 -11 12.3 72 -15.2 4.7 0
03:04 1033 30.5 862 25.45 -11.2 11.9 72 -15.2 4.6 0
03:05 1033 30.5 862 25.45 -11.3 11.6 74 -15.2 4.7 0
03:06 1033 30.5 862 25.45 -11.5 11.3 74 -15.3 4.5 0
03:07 1033 30.5 862 25.45 -11.7 11 74 -15.4 4.3 0
03:08 1033 30.5 862 25.45 -11.7 10.9 75 -15.4 4.4 0
03:09 1033 30.5 862 25.45 -11.8 10.8 75 -15.3 4.4 0
03:10 1033 30.5 862 25.45 -11.8 10.7 77 -15.1 4.8 0
03:11 1033 30.5 862 25.45 -11.6 11.1 77 -14.9 5.2 0
03:12 1033 30.5 862 25.45 -11.2 11.8 76 -14.6 5.7 0
03:13 1033 30.5 862 25.45 -10.8 12.5 73 -14.7 5.5 0
03:14 1033 30.5 862 25.45 -10.7 12.7 72 -14.8 5.4 0
03:15 1033 30.5 862 25.45 -10.6 12.9 72 -14.8 5.4 0
03:16 1033 30.5 862 25.45 -10.7 12.8 72 -14.8 5.4 0
03:17 1033 30.5 862 25.45 -10.7 12.8 72 -14.8 5.3 0
03:18 1033 30.5 862 25.45 -10.7 12.8 72 -14.8 5.3 0
03:19 1033 30.5 862 25.45 -10.7 12.8 72 -14.8 5.3 0
03:20 1033 30.5 862 25.45 -10.7 12.7 72 -14.8 5.3 0
03:21 1033 30.5 862 25.45 -10.8 12.5 72 -14.9 5.2 0
03:22 1033 30.5 862 25.45 -11 12.3 72 -15.1 4.8 0
03:23 1033 30.5 862 25.45 -11.1 11.9 73 -15.1 4.8 0
03:24 1033 30.5 862 25.45 -11.2 11.8 72 -15.3 4.5 0
03:25 1033 30.5 862 25.45 -11.4 11.4 73 -15.3 4.4 0
03:26 1033 30.5 862 25.45 -11.6 11.1 73 -15.5 4.2 0
03:27 1033 30.5 862 25.45 -11.8 10.8 74 -15.5 4.1 0
03:28 1033 30.5 862 25.45 -11.9 10.6 75 -15.4 4.2 0
03:29 1033 30.5 862 25.45 -11.9 10.7 75 -15.4 4.3 0
03:30 1033 30.5 862 25.45 -11.7 11 75 -15.2 4.6 0
03:31 1033 30.5 862 25.45 -11.5 11.3 74 -15.3 4.4 0
03:32 1033 30.5 862 25.45 -11.4 11.5 73 -15.3 4.4 0
03:33 1033 30.5 862 25.45 -11.4 11.6 73 -15.3 4.4 0
03:34 1033 30.5 862 25.45 -11.4 11.6 73 -15.3 4.5 0
03:35 1033 30.5 862 25.45 -11.2 11.8 72 -15.3 4.4 0
03:36 1033 30.5 862 25.45 -11.2 11.8 72 -15.4 4.4 0
03:37 1032 30.47 862 25.45 -11.3 11.6 73 -15.2 4.6 0
03:38 1032 30.47 862 25.45 -11.4 11.6 73 -15.2 4.6 0
03:39 1032 30.47 862 25.45 -11.4 11.5 73 -15.3 4.5 0
03:40 1032 30.47 862 25.45 -11.4 11.4 75 -15.1 4.8 0
03:41 1032 30.47 862 25.45 -11.2 11.8 74 -15 4.9 0
03:42 1032 30.47 862 25.45 -11 12.1 72 -15.1 4.9 0
03:43 1032 30.47 862 25.45 -11.1 12.1 71 -15.3 4.5 0
03:44 1032 30.47 862 25.45 -11.2 11.8 72 -15.4 4.3 0
03:45 1032 30.47 862 25.45 -11.4 11.5 72 -15.4 4.3 0
03:46 1032 30.47 862 25.45 -11.5 11.3 73 -15.4 4.3 0
03:47 1032 30.47 862 25.45 -11.5 11.3 74 -15.3 4.5 0
03:48 1032 30.47 862 25.45 -11.3 11.6 73 -15.3 4.4 0
03:49 1032 30.47 862 25.45 -11.3 11.7 72 -15.4 4.2 0
03:50 1032 30.47 862 25.45 -11.3 11.6 72 -15.4 4.2 0
03:51 1032 30.47 862 25.45 -11.3 11.7 72 -15.5 4.2 0
03:52 1032 30.47 861 25.43 -11.4 11.6 72 -15.5 4.1 0
03:53 1032 30.47 861 25.43 -11.5 11.3 73 -15.5 4.1 0
03:54 1032 30.47 861 25.43 -11.5 11.3 72 -15.5 4 0
03:55 1032 30.47 861 25.43 -11.5 11.2 71 -15.7 3.7 0
03:56 1032 30.47 861 25.43 -11.8 10.8 71 -16 3.2 0
03:57 1032 30.47 861 25.43 -12 10.5 73 -15.9 3.4 0
03:58 1032 30.47 861 25.43 -12.1 10.3 73 -16 3.3 0
03:59 1032 30.47 861 25.43 -12 10.3 74 -15.7 3.7 0
04:00 1032 30.47 861 25.43 -11.8 10.8 74 -15.5 4 0
04:01 1032 30.47 861 25.43 -11.5 11.4 71 -15.7 3.8 0
04:02 1032 30.47 861 25.43 -11.4 11.5 69 -15.9 3.3 0
04:03 1032 30.47 861 25.43 -11.7 11 71 -15.9 3.5 0
04:04 1032 30.47 861 25.43 -11.8 10.7 72 -15.9 3.4 0
04:05 1032 30.47 861 25.43 -12 10.4 73 -15.9 3.4 0
04:06 1032 30.47 861 25.43 -12.1 10.2 74 -15.9 3.4 0
04:07 1032 30.47 861 25.43 -12.1 10.2 74 -15.8 3.6 0
04:08 1032 30.47 861 25.43 -12 10.4 75 -15.5 4 0
04:09 1032 30.47 861 25.43 -11.7 10.9 73 -15.6 3.9 0
04:10 1032 30.47 861 25.43 -11.6 11.1 72 -15.6 3.8 0
04:11 1032 30.47 861 25.43 -11.7 11 72 -15.8 3.6 0
04:12 1032 30.47 861 25.43 -11.9 10.7 73 -15.7 3.7 0
04:13 1032 30.47 861 25.43 -11.8 10.7 74 -15.5 4 0
04:14 1032 30.47 861 25.43 -11.5 11.3 74 -15.2 4.6 0
04:15 1032 30.47 861 25.43 -11.2 11.9 73 -15.1 4.8 0
04:16 1032 30.47 861 25.43 -10.4 13.3 68 -15.1 4.7 0
04:17 1032 30.47 861 25.43 -10 13.9 65 -15.4 4.3 0
04:18 1032 30.47 861 25.43 -10.4 13.3 68 -15.3 4.5 0
04:19 1032 30.47 861 25.43 -10.3 13.5 67 -15.3 4.5 0
04:20 1032 30.47 861 25.43 -10.3 13.6 66 -15.5 4.1 0
04:21 1032 30.47 861 25.43 -10.4 13.3 67 -15.5 4.2 0
04:22 1032 30.47 861 25.43 -10.8 12.6 68 -15.6 3.9 0
04:23 1032 30.47 861 25.43 -11.1 12 69 -15.7 3.8 0
04:24 1032 30.47 861 25.43 -11.2 11.9 71 -15.5 4 0
04:25 1032 30.47 861 25.43 -11.2 11.8 71 -15.5 4.1 0
04:26 1032 30.47 861 25.43 -11.2 11.8 70 -15.6 3.9 0
04:27 1032 30.47 861 25.43 -11.3 11.6 71 -15.7 3.8 0
04:28 1032 30.47 861 25.43 -11.4 11.5 70 -15.9 3.5 0
04:29 1032 30.47 861 25.43 -11.7 11 71 -15.8 3.5 0
04:30 1032 30.47 861 25.43 -11.9 10.7 72 -15.9 3.4 0
04:31 1032 30.47 861 25.43 -11.9 10.7 72 -16 3.2 0
04:32 1032 30.47 861 25.43 -11.9 10.5 71 -16.2 2.9 0
04:33 1032 30.47 861 25.43 -12.2 10 74 -16 3.1 0
04:34 1032 30.47 861 25.43 -12.1 10.3 74 -15.8 3.5 0
04:35 1032 30.47 861 25.43 -11.9 10.7 71 -16.1 3.1 0
04:36 1032 30.47 861 25.43 -12 10.4 71 -16.3 2.7 0
04:37 1032 30.47 861 25.43 -12.3 9.9 72 -16.4 2.4 0
04:38 1032 30.47 861 25.43 -12.5 9.4 73 -16.4 2.4 0
04:39 1032 30.47 861 25.43 -12.8 9 74 -16.4 2.4 0
04:40 1032 30.47 861 25.43 -13 8.7 75 -16.6 2.2 0
04:41 1032 30.47 861 25.43 -13.1 8.4 76 -16.5 2.2 0
04:42 1032 30.47 861 25.43 -13.1 8.4 79 -16.1 3.1 0
04:43 1032 30.47 861 25.43 -12.6 9.3 79 -15.4 4.2 0
04:44 1032 30.47 861 25.43 -11.7 11 73 -15.6 3.9 0
04:45 1032 30.47 861 25.43 -11.5 11.3 72 -15.5 4.1 0
04:46 1032 30.47 861 25.43 -11 12.2 75 -14.6 5.6 0
04:47 1032 30.47 861 25.43 -9.6 14.7 68 -14.5 6 0
04:48 1032 30.47 861 25.43 -9 15.7 61 -15.2 4.6 0
04:49 1032 30.47 861 25.43 -9.6 14.7 66 -14.8 5.3 0
04:50 1032 30.47 861 25.43 -9.3 15.3 67 -14.4 6.1 0
04:51 1032 30.47 861 25.43 -8.4 16.9 61 -14.6 5.8 0
04:52 1032 30.47 861 25.43 -8.3 17.1 58 -15.2 4.6 0
04:53 1032 30.47 861 25.43 -9 15.9 60 -15.4 4.3 0
04:54 1032 30.47 861 25.43 -9.7 14.6 63 -15.5 4.1 0
04:55 1032 30.47 861 25.43 -10.2 13.6 65 -15.7 3.8 0
04:56 1032 30.47 861 25.43 -10.6 12.8 67 -15.7 3.7 0
04:57 1032 30.47 861 25.43 -11 12.2 70 -15.4 4.3 0
04:58 1032 30.47 861 25.43 -10.7 12.7 70 -15.2 4.6 0
04:59 1032 30.47 861 25.43 -10.4 13.2 68 -15.2 4.6 0
05:00 1032 30.47 861 25.43 -10.2 13.6 68 -15.1 4.9 0
05:01 1032 30.47 861 25.43 -9.6 14.7 68 -14.4 6.1 0
05:02 1032 30.47 861 25.43 -8.8 16.1 62 -14.9 5.2 0
05:03 1032 30.47 861 25.43 -8.9 16 61 -15.2 4.7 0
05:04 1032 30.47 861 25.43 -9.3 15.3 63 -15.1 4.7 0
05:05 1032 30.47 861 25.43 -9.6 14.7 65 -15.1 4.9 0
05:06 1032 30.47 861 25.43 -9.6 14.7 64 -15.3 4.5 0
05:07 1032 30.47 861 25.43 -9.8 14.5 66 -15 5 0
05:08 1032 30.47 861 25.43 -9.7 14.5 65 -15.2 4.6 0
05:09 1032 30.47 861 25.43 -9.9 14.3 64 -15.4 4.3 0
05:10 1032 30.47 861 25.43 -10.2 13.6 66 -15.4 4.3 0
05:11 1032 30.47 861 25.43 -10.4 13.4 67 -15.4 4.2 0
05:12 1032 30.47 861 25.43 -10.5 13.1 68 -15.4 4.3 0
05:13 1032 30.47 861 25.43 -10.6 12.9 68 -15.5 4.2 0
05:14 1032 30.47 861 25.43 -10.8 12.6 68 -15.5 4.1 0
05:15 1032 30.47 861 25.43 -10.9 12.3 69 -15.6 4 0
05:16 1032 30.47 861 25.43 -10.7 12.7 72 -14.9 5.3 0
05:17 1032 30.47 861 25.43 -10 14 67 -15 5.1 0
05:18 1032 30.47 861 25.43 -9.7 14.5 65 -15.2 4.7 0
05:19 1032 30.47 861 25.43 -9.8 14.3 65 -15.2 4.6 0
05:20 1032 30.47 861 25.43 -10 14 66 -15.3 4.5 0
05:21 1032 30.47 861 25.43 -10.3 13.6 66 -15.5 4.1 0
05:22 1032 30.47 861 25.43 -10.2 13.7 69 -14.9 5.2 0
05:23 1032 30.47 861 25.43 -9.9 14.1 62 -16 3.3 0
05:24 1032 30.47 861 25.43 -10.7 12.7 64 -16.3 2.7 0
05:25 1032 30.47 861 25.43 -11.5 11.2 68 -16.4 2.6 0
05:26 1032 30.47 861 25.43 -12 10.4 70 -16.4 2.6 0
05:27 1032 30.47 861 25.43 -12.3 9.8 73 -16.3 2.7 0
05:28 1032 30.47 861 25.43 -12.5 9.4 73 -16.4 2.6 0
05:29 1032 30.47 861 25.43 -12.7 9.2 74 -16.4 2.6 0
05:30 1032 30.47 861 25.43 -12.7 9.1 75 -16.2 2.8 0
05:31 1032 30.47 861 25.43 -12.6 9.3 76 -16 3.1 0
05:32 1032 30.47 861 25.43 -12.3 9.9 75 -15.8 3.5 0
05:33 1032 30.47 861 25.43 -12 10.5 72 -16 3.2 0
05:34 1032 30.47 861 25.43 -11.9 10.5 74 -15.7 3.7 0
05:35 1032 30.47 861 25.43 -11.7 10.9 71 -16 3.3 0
05:36 1032 30.47 861 25.43 -11.9 10.5 70 -16.4 2.5 0
05:37 1032 30.47 861 25.43 -12.2 10.1 73 -16.1 3 0
05:38 1032 30.47 861 25.43 -12.2 10 76 -15.7 3.8 0
05:39 1032 30.47 861 25.43 -12.2 10 70 -16.6 2.1 0
05:40 1032 30.47 861 25.43 -12.6 9.3 71 -16.8 1.8 0
05:41 1032 30.47 861 25.43 -13 8.7 75 -16.5 2.4 0
05:42 1032 30.47 861 25.43 -12.5 9.5 81 -15.1 4.8 0
05:43 1032 30.47 861 25.43 -11.8 10.9 69 -16.3 2.6 0
05:44 1032 30.47 861 25.43 -11.9 10.7 78 -15 5 0
05:45 1032 30.47 861 25.43 -10.8 12.5 76 -14.2 6.4 0
05:46 1032 30.47 861 25.43 -9.6 14.7 69 -14.2 6.4 0
05:47 1032 30.47 861 25.43 -8.9 15.9 63 -14.8 5.4 0
05:48 1032 30.47 861 25.43 -9.1 15.6 60 -15.5 4 0
05:49 1032 30.47 861 25.43 -9.9 14.2 60 -16.3 2.6 0
05:50 1032 30.47 861 25.43 -10.8 12.6 63 -16.6 2.2 0
05:51 1032 30.47 861 25.43 -11.6 11.1 66 -16.7 2 0
05:52 1032 30.47 861 25.43 -12.2 10.1 70 -16.6 2.2 0
05:53 1032 30.47 861 25.43 -12.6 9.4 72 -16.6 2.2 0
05:54 1032 30.47 861 25.43 -12.8 9 74 -16.5 2.3 0
05:55 1032 30.47 861 25.43 -13 8.7 75 -16.5 2.2 0
05:56 1032 30.47 861 25.43 -13 8.7 80 -15.8 3.6 0
05:57 1032 30.47 861 25.43 -12.3 9.9 81 -14.9 5.2 0
05:58 1032 30.47 861 25.43 -11.3 11.7 78 -14.5 5.9 0
05:59 1032 30.47 861 25.43 -10.4 13.2 74 -14.2 6.4 0
06:00 1032 30.47 861 25.43 -9.7 14.5 71 -14 6.8 0
06:01 1032 30.47 861 25.43 -9.2 15.5 69 -13.8 7.1 0
06:02 1032 30.47 861 25.43 -8.8 16.3 67 -13.8 7.2 0
06:03 1032 30.47 861 25.43 -8.4 16.9 66 -13.7 7.3 0
06:04 1032 30.47 861 25.43 -8.1 17.4 65 -13.6 7.5 0
06:05 1032 30.47 861 25.43 -7.9 17.8 63 -13.8 7.2 0
06:06 1031 30.45 861 25.43 -7.9 17.8 61 -14.2 6.5 0
06:07 1031 30.45 861 25.43 -8 17.7 62 -13.9 6.9 0
06:08 1031 30.45 861 25.43 -7.9 17.8 63 -13.8 7.2 0
06:09 1031 30.45 861 25.43 -7.8 18 62 -13.9 7 0
06:10 1031 30.45 861 25.43 -7.7 18.1 62 -13.8 7.1 0
06:11 1031 30.45 861 25.43 -7.7 18.2 61 -13.9 7 0
06:12 1031 30.45 861 25.43 -7.6 18.3 61 -13.9 7 0
06:13 1031 30.45 861 25.43 -7.6 18.4 61 -13.7 7.3 0
06:14 1031 30.45 861 25.43 -7.4 18.6 61 -13.7 7.3 0
06:15 1031 30.45 861 25.43 -7.4 18.7 61 -13.8 7.2 0
06:16 1031 30.45 861 25.43 -7.4 18.8 60 -13.8 7.2 0
06:17 1031 30.45 861 25.43 -7.3 18.9 60 -13.7 7.3 0
06:18 1031 30.45 861 25.43 -7.3 18.9 60 -13.7 7.4 0
06:19 1031 30.45 861 25.43 -7.2 19.1 60 -13.6 7.5 0
06:20 1031 30.45 861 25.43 -7.1 19.3 60 -13.6 7.6 0
06:21 1031 30.45 861 25.43 -7 19.5 60 -13.5 7.6 0
06:22 1031 30.45 861 25.43 -6.9 19.7 60 -13.5 7.8 0
06:23 1031 30.45 861 25.43 -6.8 19.8 59 -13.5 7.8 0
06:24 1032 30.47 861 25.43 -6.7 19.9 59 -13.4 7.8 0
06:25 1031 30.45 861 25.43 -6.7 20 59 -13.4 7.8 0
06:26 1031 30.45 861 25.43 -6.6 20.2 59 -13.3 8 0
06:27 1031 30.45 861 25.43 -6.5 20.3 59 -13.3 8 0
06:28 1031 30.45 861 25.43 -6.5 20.3 58 -13.4 7.9 0
06:29 1031 30.45 861 25.43 -6.4 20.4 58 -13.4 8 0
06:30 1031 30.45 861 25.43 -6.4 20.5 58 -13.4 8 0
06:31 1031 30.45 861 25.43 -6.3 20.6 58 -13.3 8 0
06:32 1031 30.45 861 25.43 -6.3 20.6 58 -13.3 8 0
06:33 1031 30.45 861 25.43 -6.3 20.7 58 -13.4 8 0
06:34 1031 30.45 861 25.43 -6.3 20.7 57 -13.4 7.9 0
06:35 1031 30.45 861 25.43 -6.2 20.8 57 -13.4 7.9 0
06:36 1032 30.47 861 25.43 -6.2 20.9 57 -13.3 8 0
06:37 1031 30.45 861 25.43 -6.1 20.9 57 -13.3 8.1 0
06:38 1031 30.45 861 25.43 -6.1 21 57 -13.4 7.9 0
06:39 1031 30.45 861 25.43 -6.1 21 56 -13.5 7.7 0
06:40 1031 30.45 861 25.43 -6.2 20.8 57 -13.5 7.7 0
06:41 1031 30.45 861 25.43 -6.3 20.7 57 -13.4 7.8 0
06:42 1031 30.45 861 25.43 -6.2 20.8 57 -13.4 7.9 0
06:43 1031 30.45 861 25.43 -6.1 21 57 -13.3 8 0
06:44 1031 30.45 861 25.43 -6.1 21.1 57 -13.3 8 0
06:45 1031 30.45 861 25.43 -6 21.2 56 -13.4 8 0
06:46 1031 30.45 861 25.43 -6 21.2 56 -13.4 7.9 0
06:47 1031 30.45 861 25.43 -6 21.2 56 -13.5 7.7 0
06:48 1031 30.45 861 25.43 -6 21.2 56 -13.4 7.9 0
06:49 1031 30.45 861 25.43 -6.1 21.1 56 -13.5 7.8 0
06:50 1031 30.45 861 25.43 -6.1 21 56 -13.5 7.7 0
06:51 1031 30.45 861 25.43 -6.2 20.9 56 -13.5 7.7 0
06:52 1031 30.45 861 25.43 -6.2 20.9 57 -13.5 7.7 0
06:53 1031 30.45 861 25.43 -6.2 20.9 57 -13.5 7.7 0
06:54 1031 30.45 861 25.43 -6.1 20.9 56 -13.5 7.8 0
06:55 1031 30.45 861 25.43 -6.1 20.9 57 -13.4 7.8 0
06:56 1031 30.45 861 25.43 -6.1 21 56 -13.4 7.9 0
06:57 1031 30.45 861 25.43 -6.1 21 56 -13.4 7.8 0
06:58 1031 30.45 861 25.43 -6.1 21 47 -15.8 3.6 0
06:59 1031 30.45 861 25.43 -7.3 19 53 -15.2 4.6 0
07:00 1031 30.45 861 25.43 -8.4 16.8 54 -16.3 2.7 0
07:01 1031 30.45 860 25.4 -9.7 14.6 62 -15.7 3.7 0
07:02 1031 30.45 860 25.4 -10.4 13.3 63 -16.1 3 0
07:03 1031 30.45 860 25.4 -11 12.1 66 -16.2 2.8 0
07:04 1031 30.45 861 25.43 -11.4 11.4 70 -15.9 3.4 0
07:05 1031 30.45 861 25.43 -11.2 11.9 74 -14.9 5.1 0
07:06 1031 30.45 861 25.43 -10.4 13.2 71 -14.7 5.5 0
07:07 1031 30.45 861 25.43 -9.9 14.2 69 -14.5 5.9 0
07:08 1031 30.45 861 25.43 -9.3 15.3 68 -14.1 6.5 0
07:09 1031 30.45 861 25.43 -8.7 16.3 66 -13.9 6.9 0
07:10 1031 30.45 861 25.43 -8.3 17.2 64 -13.9 7 0
07:11 1031 30.45 861 25.43 -7.9 17.8 63 -13.8 7.2 0
07:12 1031 30.45 861 25.43 -7.5 18.4 62 -13.6 7.5 0
07:13 1031 30.45 861 25.43 -7.2 19 61 -13.5 7.6 0
07:14 1031 30.45 861 25.43 -7 19.4 60 -13.5 7.7 0
07:15 1031 30.45 861 25.43 -6.8 19.8 59 -13.4 7.9 0
07:16 1031 30.45 861 25.43 -6.5 20.2 59 -13.4 7.9 0
07:17 1031 30.45 861 25.43 -6.4 20.5 58 -13.4 8 0
07:18 1031 30.45 861 25.43 -6.4 20.5 58 -13.4 7.9 0
07:19 1031 30.45 861 25.43 -6.4 20.5 58 -13.3 8 0
07:20 1031 30.45 861 25.43 -6.2 20.8 58 -13.3 8.1 0
07:21 1031 30.45 861 25.43 -6.1 21.1 57 -13.3 8.1 0
07:22 1031 30.45 861 25.43 -6.4 20.5 53 -14.5 5.9 0
07:23 1031 30.45 861 25.43 -7.1 19.2 58 -14.1 6.6 0
07:24 1031 30.45 861 25.43 -7.6 18.4 61 -13.8 7.2 0
07:25 1031 30.45 861 25.43 -7.7 18.2 62 -13.9 7.1 0
07:26 1031 30.45 861 25.43 -7.8 17.9 61 -14.2 6.5 0
07:27 1031 30.45 861 25.43 -8 17.6 61 -14.2 6.5 0
07:28 1031 30.45 861 25.43 -8.1 17.5 64 -13.7 7.3 0
07:29 1031 30.45 861 25.43 -7.9 17.9 64 -13.5 7.6 0
07:30 1031 30.45 861 25.43 -7.4 18.7 62 -13.5 7.6 0
07:31 1031 30.45 861 25.43 -6.9 19.5 61 -13.3 8 0
07:32 1031 30.45 861 25.43 -6.6 20.2 59 -13.2 8.2 0
07:33 1031 30.45 861 25.43 -6.3 20.6 59 -13.2 8.3 0
07:34 1031 30.45 861 25.43 -6.3 20.7 56 -13.6 7.5 0
07:35 1031 30.45 861 25.43 -6.3 20.7 57 -13.5 7.6 0
07:36 1031 30.45 861 25.43 -6.6 20.1 58 -13.5 7.6 0
07:37 1031 30.45 861 25.43 -6.7 20 59 -13.5 7.7 0
07:38 1031 30.45 861 25.43 -6.5 20.2 59 -13.3 8 0
07:39 1031 30.45 861 25.43 -6.5 20.3 55 -14 6.8 0
07:40 1031 30.45 861 25.43 -6.7 19.9 58 -13.6 7.5 0
07:41 1031 30.45 861 25.43 -6.9 19.6 55 -14.5 6 0
07:42 1031 30.45 861 25.43 -7.5 18.6 57 -14.5 5.8 0
07:43 1031 30.45 861 25.43 -7.9 17.8 61 -14.1 6.6 0
07:44 1031 30.45 861 25.43 -7.8 18 62 -13.8 7.2 0
07:45 1031 30.45 861 25.43 -7.6 18.4 61 -13.8 7.2 0
07:46 1032 30.47 861 25.43 -7.5 18.6 61 -13.7 7.4 0
07:47 1032 30.47 861 25.43 -7.4 18.7 60 -14 6.8 0
07:48 1032 30.47 861 25.43 -7.7 18.2 59 -14.5 6 0
07:49 1032 30.47 861 25.43 -8.1 17.5 64 -13.7 7.3 0
07:50 1032 30.47 861 25.43 -7.9 17.9 65 -13.4 7.8 0
07:51 1032 30.47 861 25.43 -7.5 18.5 62 -13.6 7.5 0
07:52 1032 30.47 861 25.43 -7.4 18.6 60 -13.9 6.9 0
07:53 1032 30.47 861 25.43 -7.8 18 60 -14.2 6.5 0
07:54 1032 30.47 861 25.43 -8.2 17.3 65 -13.6 7.6 0
07:55 1032 30.47 861 25.43 -8 17.7 66 -13.3 8 0
07:56 1032 30.47 861 25.43 -7.6 18.3 64 -13.3 8.1 0
07:57 1032 30.47 861 25.43 -7.4 18.6 61 -13.8 7.2 0
07:58 1032 30.47 861 25.43 -7.8 17.9 60 -14.3 6.3 0
07:59 1032 30.47 861 25.43 -8.3 17.1 65 -13.8 7.1 0
08:00 1032 30.47 861 25.43 -8.2 17.2 66 -13.4 7.8 0
08:01 1032 30.47 861 25.43 -8.1 17.5 66 -13.3 8.1 0
08:02 1032 30.47 861 25.43 -7.8 18 66 -13.1 8.3 0
08:03 1032 30.47 861 25.43 -7.5 18.5 63 -13.4 7.9 0
08:04 1032 30.47 861 25.43 -7.6 18.3 62 -13.7 7.3 0
08:05 1032 30.47 861 25.43 -8.1 17.5 61 -14.2 6.4 0
08:06 1032 30.47 861 25.43 -8.4 16.9 66 -13.6 7.5 0
08:07 1032 30.47 861 25.43 -8.4 16.9 68 -13.4 7.9 0
08:08 1032 30.47 861 25.43 -8.3 17.1 68 -13.2 8.3 0
08:09 1032 30.47 861 25.43 -8 17.6 68 -13 8.6 0
08:10 1032 30.47 861 25.43 -7.8 18 64 -13.5 7.7 0
08:11 1032 30.47 861 25.43 -8 17.6 64 -13.7 7.3 0
08:12 1032 30.47 861 25.43 -8.2 17.3 66 -13.5 7.7 0
08:13 1032 30.47 861 25.43 -8.2 17.3 67 -13.4 8 0
08:14 1032 30.47 861 25.43 -8 17.6 69 -12.7 9.1 0
08:15 1032 30.47 861 25.43 -7.5 18.5 68 -12.5 9.5 0
08:16 1032 30.47 861 25.43 -7.1 19.3 65 -12.5 9.5 0
08:17 1032 30.47 861 25.43 -7.2 19 54 -15.1 4.9 0
08:18 1032 30.47 861 25.43 -8.6 16.6 57 -15.5 4 0
08:19 1032 30.47 861 25.43 -9.9 14.3 62 -15.8 3.6 0
08:20 1032 30.47 861 25.43 -10.7 12.7 66 -15.9 3.3 0
08:21 1032 30.47 861 25.43 -11.4 11.5 68 -16.2 2.8 0
08:22 1032 30.47 861 25.43 -11.9 10.6 70 -16.4 2.5 0
08:23 1032 30.47 861 25.43 -12.3 9.9 72 -16.4 2.5 0
08:24 1032 30.47 861 25.43 -12.6 9.3 73 -16.5 2.3 0
08:25 1032 30.47 861 25.43 -12.8 8.9 75 -16.4 2.6 0
08:26 1032 30.47 861 25.43 -12.9 8.7 75 -16.4 2.4 0
08:27 1032 30.47 861 25.43 -13 8.6 77 -16.3 2.7 0
08:28 1032 30.47 861 25.43 -13 8.6 79 -15.8 3.5 0
08:29 1032 30.47 861 25.43 -12.7 9.2 80 -15.5 4.2 0
08:30 1032 30.47 861 25.43 -12.4 9.6 80 -15.2 4.6 0
08:31 1032 30.47 861 25.43 -12 10.3 76 -15.4 4.2 0
08:32 1032 30.47 861 25.43 -12 10.4 75 -15.7 3.8 0
08:33 1032 30.47 861 25.43 -12 10.3 75 -15.6 3.9 0
08:34 1032 30.47 861 25.43 -12.1 10.2 74 -15.8 3.6 0
08:35 1032 30.47 861 25.43 -12.1 10.1 76 -15.5 4 0
08:36 1032 30.47 861 25.43 -12 10.4 76 -15.4 4.3 0
08:37 1032 30.47 861 25.43 -11.9 10.6 76 -15.4 4.3 0
08:38 1032 30.47 861 25.43 -11.8 10.8 76 -15.3 4.5 0
08:39 1032 30.47 861 25.43 -11.7 11 75 -15.2 4.6 0
08:40 1032 30.47 861 25.43 -11.6 11 75 -15.3 4.5 0
08:41 1032 30.47 861 25.43 -11.6 11.1 74 -15.3 4.4 0
08:42 1032 30.47 861 25.43 -11.6 11 74 -15.4 4.3 0
08:43 1032 30.47 861 25.43 -11.7 10.9 74 -15.5 4.1 0
08:44 1032 30.47 861 25.43 -11.8 10.7 76 -15.3 4.5 0
08:45 1032 30.47 861 25.43 -11.7 11 77 -15 5 0
08:46 1032 30.47 861 25.43 -11.4 11.5 79 -14.4 6.1 0
08:47 1032 30.47 861 25.43 -11 12.2 74 -14.7 5.5 0
08:48 1032 30.47 861 25.43 -10.9 12.4 73 -14.8 5.3 0
08:49 1032 30.47 861 25.43 -10.9 12.3 75 -14.5 6 0
08:50 1032 30.47 861 25.43 -10.8 12.6 75 -14.4 6.1 0
08:51 1032 30.47 861 25.43 -10.7 12.8 75 -14.3 6.2 0
08:52 1032 30.47 861 25.43 -10.6 13 75 -14.2 6.4 0
08:53 1032 30.47 861 25.43 -10.4 13.2 73 -14.3 6.2 0
08:54 1032 30.47 861 25.43 -10.4 13.2 73 -14.4 6.2 0
08:55 1032 30.47 861 25.43 -10.4 13.2 73 -14.3 6.2 0
08:56 1032 30.47 861 25.43 -10.4 13.2 74 -14.3 6.3 0
08:57 1032 30.47 861 25.43 -10.4 13.3 74 -14.2 6.4 0
08:58 1032 30.47 861 25.43 -10.3 13.4 73 -14.3 6.3 0
08:59 1032 30.47 861 25.43 -10.3 13.4 74 -14.2 6.5 0
09:00 1032 30.47 861 25.43 -10.2 13.6 74 -14 6.8 0
09:01 1032 30.47 861 25.43 -10.1 13.8 74 -13.9 7 0
09:02 1032 30.47 861 25.43 -9.9 14.2 75 -13.6 7.5 0
09:03 1032 30.47 861 25.43 -9.6 14.7 73 -13.6 7.4 0
09:04 1032 30.47 861 25.43 -9.4 15 72 -13.5 7.7 0
09:05 1032 30.47 861 25.43 -9.2 15.4 72 -13.4 7.9 0
09:06 1032 30.47 861 25.43 -9.1 15.6 71 -13.4 7.9 0
09:07 1032 30.47 861 25.43 -9 15.9 71 -13.3 8 0
09:08 1032 30.47 861 25.43 -8.9 16 70 -13.5 7.7 0
09:09 1032 30.47 861 25.43 -8.9 15.9 69 -13.5 7.6 0
09:10 1032 30.47 861 25.43 -9.1 15.7 69 -13.7 7.3 0
09:11 1032 30.47 861 25.43 -9.2 15.5 70 -13.7 7.4 0
09:12 1032 30.47 861 25.43 -9.2 15.5 71 -13.4 7.8 0
09:13 1032 30.47 861 25.43 -9.1 15.6 72 -13.2 8.3 0
09:14 1032 30.47 861 25.43 -8.9 16 71 -13.3 8.1 0
09:15 1032 30.47 861 25.43 -8.7 16.3 72 -12.9 8.7 0
09:16 1032 30.47 861 25.43 -8.5 16.7 71 -12.8 8.9 0
09:17 1032 30.47 861 25.43 -8.2 17.2 69 -12.9 8.7 0
09:18 1032 30.47 861 25.43 -8.2 17.3 68 -13.1 8.4 0
09:19 1032 30.47 861 25.43 -8.3 17.1 67 -13.4 7.9 0
09:20 1032 30.47 861 25.43 -8.5 16.8 68 -13.4 7.9 0
09:21 1032 30.47 861 25.43 -8.5 16.7 70 -13 8.5 0
09:22 1032 30.47 861 25.43 -8.4 16.9 71 -12.8 9 0
09:23 1032 30.47 861 25.43 -8.3 17.2 69 -13 8.6 0
09:24 1032 30.47 861 25.43 -8.3 17.2 68 -13.2 8.3 0
09:25 1032 30.47 861 25.43 -8.3 17 68 -13.2 8.3 0
09:26 1032 30.47 861 25.43 -8.4 16.8 69 -13.2 8.3 0
09:27 1032 30.47 861 25.43 -8.5 16.7 71 -12.8 8.9 0
09:28 1032 30.47 861 25.43 -8.5 16.7 72 -12.7 9.1 0
09:29 1032 30.47 861 25.43 -8.5 16.7 71 -12.8 8.9 0
09:30 1032 30.47 861 25.43 -8.5 16.8 73 -12.5 9.5 0
09:31 1032 30.47 861 25.43 -8.3 17 72 -12.4 9.6 0
09:32 1032 30.47 861 25.43 -8.2 17.2 72 -12.4 9.6 0
09:33 1032 30.47 861 25.43 -8.2 17.2 71 -12.6 9.2 0
09:34 1032 30.47 861 25.43 -8.2 17.2 71 -12.6 9.4 0
09:35 1032 30.47 861 25.43 -8.3 17.2 71 -12.6 9.2 0
09:36 1032 30.47 861 25.43 -8.2 17.2 71 -12.6 9.4 0
09:37 1032 30.47 861 25.43 -8.1 17.3 71 -12.5 9.6 0
09:38 1032 30.47 861 25.43 -8 17.6 71 -12.3 9.8 0
09:39 1032 30.47 861 25.43 -7.9 17.8 71 -12.3 9.9 0
09:40 1031 30.45 861 25.43 -7.9 17.9 71 -12.3 9.9 0
09:41 1031 30.45 861 25.43 -7.8 17.9 71 -12.1 10.2 0
09:42 1031 30.45 861 25.43 -7.7 18.1 71 -12.2 10.1 0
09:43 1031 30.45 861 25.43 -7.6 18.4 71 -11.9 10.5 0
09:44 1031 30.45 861 25.43 -7.4 18.8 71 -11.8 10.7 0
09:45 1031 30.45 861 25.43 -7.1 19.1 69 -11.8 10.7 0
09:46 1031 30.45 861 25.43 -7.1 19.3 69 -11.8 10.8 0
09:47 1031 30.45 861 25.43 -7 19.4 70 -11.6 11.2 0
09:48 1031 30.45 861 25.43 -6.9 19.6 69 -11.6 11.2 0
09:49 1031 30.45 860 25.4 -6.7 20 69 -11.5 11.3 0
09:50 1031 30.45 860 25.4 -6.5 20.3 69 -11.3 11.7 0
09:51 1031 30.45 860 25.4 -6.4 20.6 69 -11.2 11.9 0
09:52 1031 30.45 861 25.43 -6.2 20.8 69 -11.1 12.1 0
09:53 1031 30.45 860 25.4 -6 21.2 68 -11 12.3 0
09:54 1031 30.45 860 25.4 -5.8 21.6 67 -10.9 12.4 0
09:55 1031 30.45 860 25.4 -5.5 22.1 67 -10.8 12.6 0
09:56 1031 30.45 860 25.4 -5.3 22.4 66 -10.7 12.7 0
09:57 1031 30.45 860 25.4 -5.1 22.8 65 -10.8 12.6 0
09:58 1031 30.45 860 25.4 -5 23.1 63 -10.9 12.3 0
09:59 1031 30.45 860 25.4 -4.8 23.4 63 -10.8 12.5 0
10:00 1031 30.45 860 25.4 -4.6 23.7 63 -10.7 12.7 0
10:01 1031 30.45 860 25.4 -4.5 23.9 61 -10.9 12.4 0
10:02 1031 30.45 860 25.4 -4.3 24.2 60 -10.9 12.4 0
10:03 1031 30.45 860 25.4 -4.2 24.4 60 -10.9 12.3 0
10:04 1031 30.45 860 25.4 -4.1 24.6 61 -10.6 13 0
10:05 1031 30.45 860 25.4 -4 24.8 61 -10.4 13.3 0
10:06 1031 30.45 860 25.4 -3.8 25.1 61 -10.3 13.5 0
10:07 1031 30.45 860 25.4 -3.6 25.5 60 -10.2 13.7 0
10:08 1031 30.45 860 25.4 -3.4 26 60 -10.1 13.7 0
10:09 1031 30.45 860 25.4 -3.1 26.4 58 -10.2 13.7 0
10:10 1031 30.45 860 25.4 -2.9 26.7 59 -9.9 14.1 0
10:11 1031 30.45 860 25.4 -2.7 27.2 59 -9.6 14.7 0
10:12 1031 30.45 860 25.4 -2.3 27.8 58 -9.4 15 0
10:13 1031 30.45 860 25.4 -2 28.4 57 -9.5 14.9 0
10:14 1031 30.45 860 25.4 -1.8 28.7 56 -9.5 14.9 0
10:15 1031 30.45 860 25.4 -1.5 29.2 56 -9.2 15.5 0
10:16 1031 30.45 860 25.4 -1 30.2 53 -9.3 15.2 0
10:17 1031 30.45 860 25.4 -0.5 31.2 52 -9.1 15.5 0
10:18 1031 30.45 860 25.4 0.1 32.1 51 -9 15.8 0
10:19 1031 30.45 860 25.4 0.6 33.1 47 -9.3 15.2 0
10:20 1031 30.45 860 25.4 0.9 33.7 46 -9.5 15 0
10:21 1031 30.45 860 25.4 1.2 34.1 45 -9.5 14.9 0
10:22 1031 30.45 860 25.4 1.3 34.4 44 -9.7 14.5 0
10:23 1031 30.45 860 25.4 1.7 35 42 -10 13.9 0
10:24 1031 30.45 860 25.4 2.1 35.7 39 -10.5 13.1 0
10:25 1031 30.45 860 25.4 2.1 35.9 39 -10.5 13.2 0
10:26 1031 30.45 860 25.4 2.2 35.9 39 -10.3 13.5 0
10:27 1031 30.45 860 25.4 2.2 35.9 40 -9.9 14.1 0
10:28 1031 30.45 860 25.4 2 35.7 41 -9.9 14.1 0
10:29 1031 30.45 860 25.4 1.9 35.4 39 -10.5 13 0
10:30 1031 30.45 860 25.4 1.7 35.1 40 -10.6 13 0
10:31 1031 30.45 860 25.4 1.7 35 40 -10.7 12.8 0
10:32 1031 30.45 860 25.4 1.8 35.2 38 -11.1 11.9 0
10:33 1031 30.45 860 25.4 1.7 35 41 -10.3 13.5 0
10:34 1031 30.45 860 25.4 1.4 34.5 41 -10.5 13 0
10:35 1031 30.45 860 25.4 1.2 34.2 39 -11.1 12 0
10:36 1031 30.45 860 25.4 1.3 34.4 40 -10.8 12.6 0
10:37 1031 30.45 860 25.4 1.6 34.9 37 -11.7 10.9 0
10:38 1031 30.45 860 25.4 2.1 35.7 34 -12.1 10.3 0
10:39 1031 30.45 860 25.4 2.2 36 33 -12.6 9.3 0
10:40 1031 30.45 860 25.4 2.5 36.4 33 -12.4 9.7 0
10:41 1031 30.45 860 25.4 3 37.3 32 -12.2 10 0
10:42 1031 30.45 860 25.4 3.5 38.2 31 -12.2 10.1 0
10:43 1031 30.45 860 25.4 3.7 38.7 29 -12.7 9.1 0
10:44 1031 30.45 860 25.4 3.8 38.9 30 -12.4 9.6 0
10:45 1031 30.45 860 25.4 4 39.2 31 -11.6 11.1 0
10:46 1031 30.45 860 25.4 4.2 39.6 30 -12 10.3 0
10:47 1031 30.45 860 25.4 4.2 39.6 31 -11.4 11.4 0
10:48 1031 30.45 860 25.4 4.2 39.6 31 -11.6 11.2 0
10:49 1031 30.45 860 25.4 4.6 40.2 30 -11.7 11 0
10:50 1031 30.45 860 25.4 4.9 40.7 29 -11.6 11 0
10:51 1031 30.45 860 25.4 4.9 40.8 29 -11.6 11.1 0
10:52 1031 30.45 860 25.4 4.9 40.8 29 -11.7 10.9 0
10:53 1031 30.45 860 25.4 5 40.9 29 -11.5 11.2 0
10:54 1031 30.45 860 25.4 4.8 40.6 28 -12.2 10.1 0
10:55 1031 30.45 860 25.4 4.1 39.4 31 -11.4 11.4 0
10:56 1031 30.45 860 25.4 3.6 38.5 32 -11.6 11.2 0
10:57 1031 30.45 860 25.4 3.1 37.6 33 -11.6 11.1 0
10:58 1031 30.45 860 25.4 2.7 36.8 33 -12.2 10 0
10:59 1031 30.45 860 25.4 2.2 35.9 35 -11.8 10.8 0
11:00 1031 30.45 860 25.4 1.8 35.3 37 -11.3 11.7 0
11:01 1031 30.45 860 25.4 1.5 34.7 39 -11.1 12 0
11:02 1031 30.45 860 25.4 1.1 34 40 -11 12.3 0
11:03 1031 30.45 860 25.4 0.9 33.6 40 -11.1 12 0
11:04 1031 30.45 860 25.4 0.7 33.2 45 -10.1 13.9 0
11:05 1031 30.45 860 25.4 0.4 32.7 46 -9.8 14.3 0
11:06 1031 30.45 860 25.4 0.1 32.2 48 -9.6 14.7 0
11:07 1031 30.45 860 25.4 -0.1 31.8 50 -9.4 15.1 0
11:08 1031 30.45 860 25.4 -0.2 31.7 50 -9.5 14.9 0
11:09 1031 30.45 860 25.4 -0.3 31.5 50 -9.5 14.9 0
11:10 1031 30.45 860 25.4 -0.5 31.1 52 -9.3 15.3 0
11:11 1031 30.45 860 25.4 -0.6 30.9 52 -9.2 15.5 0
11:12 1031 30.45 860 25.4 -0.8 30.6 54 -9 15.8 0
11:13 1031 30.45 860 25.4 -0.9 30.4 52 -9.5 14.9 0
11:14 1031 30.45 860 25.4 -1.1 30.1 54 -9.3 15.3 0
11:15 1031 30.45 860 25.4 -1.2 29.9 55 -9.2 15.5 0
11:16 1031 30.45 860 25.4 -1.2 29.8 55 -9.2 15.4 0
11:17 1031 30.45 860 25.4 -1.2 29.8 53 -9.5 14.8 0
11:18 1031 30.45 860 25.4 -1.2 29.9 53 -9.7 14.6 0
11:19 1031 30.45 860 25.4 -1.1 30 51 -9.9 14.2 0
11:20 1031 30.45 860 25.4 -1.1 30.1 52 -9.7 14.5 0
11:21 1031 30.45 860 25.4 -1 30.3 51 -9.8 14.4 0
11:22 1031 30.45 860 25.4 -0.8 30.5 51 -9.7 14.5 0
11:23 1031 30.45 860 25.4 -0.7 30.7 50 -9.8 14.3 0
11:24 1030 30.42 860 25.4 -0.7 30.8 50 -9.8 14.4 0
11:25 1030 30.42 860 25.4 -0.6 31 50 -9.7 14.5 0
11:26 1030 30.42 860 25.4 -0.4 31.3 49 -9.9 14.1 0
11:27 1030 30.42 860 25.4 -0.3 31.4 48 -10 14 0
11:28 1030 30.42 860 25.4 -0.2 31.6 49 -9.8 14.3 0
11:29 1030 30.42 860 25.4 -0.2 31.6 48 -9.9 14.2 0
11:30 1030 30.42 860 25.4 -0.2 31.6 49 -9.8 14.4 0
11:31 1030 30.42 860 25.4 -0.2 31.6 48 -10.1 13.9 0
11:32 1030 30.42 860 25.4 -0.2 31.7 47 -10.1 13.9 0
11:33 1030 30.42 860 25.4 -0.1 31.8 47 -10.2 13.7 0
11:34 1030 30.42 859 25.37 -0.1 31.9 47 -10.1 13.8 0
11:35 1030 30.42 859 25.37 -0.1 31.9 48 -9.8 14.3 0
11:36 1030 30.42 859 25.37 0 32.1 47 -10.1 13.9 0
11:37 1030 30.42 859 25.37 0.1 32.2 46 -10.2 13.7 0
11:38 1030 30.42 859 25.37 0.3 32.5 47 -9.8 14.4 0
11:39 1030 30.42 859 25.37 0.4 32.8 44 -10.4 13.2 0
11:40 1030 30.42 859 25.37 0.5 32.9 45 -9.9 14.1 0
11:41 1030 30.42 859 25.37 0.7 33.2 45 -10.1 13.8 0
11:42 1030 30.42 859 25.37 0.9 33.5 43 -10.4 13.2 0
11:43 1030 30.42 859 25.37 1.1 34 43 -10.1 13.9 0
11:44 1030 30.42 859 25.37 1.2 34.1 42 -10.3 13.5 0
11:45 1030 30.42 859 25.37 1.2 34.2 42 -10.4 13.3 0
11:46 1030 30.42 859 25.37 1.4 34.4 42 -10.1 13.9 0
11:47 1030 30.42 859 25.37 1.5 34.7 42 -10.1 13.7 0
11:48 1030 30.42 859 25.37 1.6 34.9 41 -10.2 13.6 0
11:49 1030 30.42 859 25.37 1.8 35.2 39 -10.7 12.8 0
11:50 1030 30.42 859 25.37 1.8 35.3 39 -10.8 12.5 0
11:51 1030 30.42 859 25.37 1.8 35.3 40 -10.4 13.4 0
11:52 1030 30.42 859 25.37 1.9 35.4 39 -10.7 12.7 0
11:53 1030 30.42 859 25.37 2.1 35.7 41 -10 14 0
11:54 1030 30.42 859 25.37 2.1 35.9 38 -10.7 12.7 0
11:55 1030 30.42 859 25.37 2.2 35.9 39 -10.4 13.2 0
11:56 1030 30.42 859 25.37 2.2 35.9 39 -10.4 13.3 0
11:57 1030 30.42 859 25.37 2.2 35.9 38 -10.6 12.9 0
11:58 1030 30.42 859 25.37 2.2 35.9 38 -10.9 12.4 0
11:59 1030 30.42 859 25.37 2.3 36.2 37 -10.8 12.5 0
12:00 1030 30.42 859 25.37 2.7 36.8 34 -11.6 11.1 0
12:01 1030 30.42 859 25.37 2.9 37.1 34 -11.5 11.3 0
12:02 1030 30.42 859 25.37 3.1 37.6 35 -10.9 12.4 0
12:03 1030 30.42 859 25.37 3.3 37.9 41 -8.8 16.1 0
12:04 1030 30.42 859 25.37 3 37.4 44 -8 17.7 0
12:05 1030 30.42 859 25.37 2.3 36.1 45 -8.5 16.7 0
12:06 1030 30.42 859 25.37 1.6 34.9 50 -7.8 18 0
12:07 1030 30.42 859 25.37 1.2 34.1 50 -8.2 17.3 0
12:08 1030 30.42 859 25.37 0.8 33.4 50 -8.4 16.8 0
12:09 1030 30.42 859 25.37 0.4 32.8 49 -9.1 15.6 0
12:10 1030 30.42 859 25.37 0.2 32.4 52 -8.5 16.7 0
12:11 1030 30.42 859 25.37 0.1 32.2 49 -9.4 15.1 0
12:12 1030 30.42 859 25.37 -0 31.9 49 -9.5 14.9 0
12:13 1030 30.42 859 25.37 -0.1 31.8 49 -9.6 14.8 0
12:14 1030 30.42 859 25.37 -0.1 31.7 51 -9.1 15.6 0
12:15 1030 30.42 859 25.37 -0.1 31.8 49 -9.5 14.9 0
12:16 1030 30.42 859 25.37 -0.1 31.9 49 -9.5 14.9 0
12:17 1030 30.42 859 25.37 0.1 32.1 47 -10.1 13.9 0
12:18 1030 30.42 859 25.37 0.1 32.2 48 -9.8 14.4 0
12:19 1029 30.39 859 25.37 0.1 32.1 48 -9.6 14.7 0
12:20 1029 30.39 859 25.37 0.1 32.1 49 -9.3 15.2 0
12:21 1030 30.42 859 25.37 0.1 32.2 48 -9.7 14.6 0
12:22 1029 30.39 859 25.37 0.1 32.1 48 -9.7 14.6 0
12:23 1029 30.39 859 25.37 0 32 48 -9.7 14.5 0
12:24 1029 30.39 859 25.37 0.1 32.2 51 -8.9 16 0
12:25 1029 30.39 859 25.37 0.2 32.4 48 -9.5 14.9 0
12:26 1029 30.39 859 25.37 0.2 32.4 51 -8.9 16 0
12:27 1029 30.39 859 25.37 0.2 32.4 48 -9.5 14.9 0
12:28 1029 30.39 859 25.37 0.3 32.5 47 -9.7 14.6 0
12:29 1029 30.39 859 25.37 0.4 32.7 49 -9.1 15.6 0
12:30 1029 30.39 859 25.37 0.5 33 49 -9.1 15.6 0
12:31 1029 30.39 859 25.37 0.6 33 49 -8.9 15.9 0
12:32 1029 30.39 859 25.37 0.4 32.8 51 -8.5 16.7 0
12:33 1029 30.39 859 25.37 0.4 32.8 48 -9.3 15.2 0
12:34 1029 30.39 859 25.37 0.5 32.8 48 -9.4 15 0
12:35 1029 30.39 859 25.37 0.5 32.9 48 -9.4 15.1 0
12:36 1029 30.39 859 25.37 0.5 32.9 52 -8.3 17 0
12:37 1029 30.39 859 25.37 0.4 32.8 49 -8.9 15.9 0
12:38 1029 30.39 858 25.34 0.4 32.7 49 -9.2 15.4 0
12:39 1029 30.39 858 25.34 0.3 32.6 48 -9.4 15.2 0
12:40 1029 30.39 858 25.34 0.4 32.7 48 -9.4 15 0
12:41 1029 30.39 858 25.34 0.5 32.9 49 -8.9 15.9 0
12:42 1029 30.39 858 25.34 0.6 33 48 -9.2 15.4 0
12:43 1029 30.39 858 25.34 0.6 33.2 47 -9.3 15.2 0
12:44 1029 30.39 858 25.34 0.7 33.3 46 -9.5 14.9 0
12:45 1029 30.39 858 25.34 0.8 33.4 48 -9.1 15.6 0
12:46 1029 30.39 858 25.34 0.7 33.2 47 -9.3 15.3 0
12:47 1029 30.39 858 25.34 0.7 33.2 46 -9.6 14.7 0
12:48 1029 30.39 858 25.34 0.6 33.1 48 -9.2 15.4 0
12:49 1029 30.39 858 25.34 0.7 33.3 48 -8.9 15.9 0
12:50 1029 30.39 858 25.34 0.8 33.5 49 -8.8 16.2 0
12:51 1029 30.39 858 25.34 0.9 33.6 48 -8.9 15.9 0
12:52 1029 30.39 858 25.34 1 33.8 47 -9.2 15.4 0
12:53 1029 30.39 858 25.34 1 33.9 47 -9.1 15.6 0
12:54 1029 30.39 858 25.34 1.2 34.1 46 -9.2 15.5 0
12:55 1029 30.39 858 25.34 1.3 34.3 45 -9.3 15.2 0
12:56 1029 30.39 858 25.34 1.4 34.5 45 -9.3 15.2 0
12:57 1029 30.39 858 25.34 1.5 34.6 44 -9.4 15.1 0
12:58 1029 30.39 858 25.34 1.6 34.9 44 -9.3 15.3 0
12:59 1029 30.39 858 25.34 1.9 35.5 43 -9.4 15.2 0
13:00 1029 30.39 858 25.34 2.2 36 40 -9.9 14.2 0
13:01 1029 30.39 858 25.34 2.5 36.4 41 -9.6 14.7 0
13:02 1029 30.39 858 25.34 2.7 36.8 40 -9.5 14.9 0
13:03 1029 30.39 858 25.34 2.9 37.3 36 -10.6 12.9 0
13:04 1029 30.39 858 25.34 3.1 37.6 37 -10.2 13.6 0
13:05 1029 30.39 858 25.34 3.2 37.8 37 -10.1 13.7 0
13:06 1029 30.39 858 25.34 3.3 37.9 37 -9.9 14.1 0
13:07 1029 30.39 858 25.34 3.5 38.3 37 -9.9 14.2 0
13:08 1029 30.39 858 25.34 3.6 38.5 34 -10.8 12.6 0
13:09 1029 30.39 858 25.34 3.7 38.7 34 -10.6 12.9 0
13:10 1029 30.39 858 25.34 3.8 38.9 34 -10.9 12.5 0
13:11 1029 30.39 858 25.34 3.8 38.8 32 -11.6 11.2 0
13:12 1029 30.39 858 25.34 3.9 38.9 34 -10.7 12.7 0
13:13 1029 30.39 858 25.34 3.9 39.1 32 -11.2 11.9 0
13:14 1029 30.39 858 25.34 3.9 39 33 -11.1 12 0
13:15 1029 30.39 858 25.34 3.8 38.9 33 -10.9 12.3 0
13:16 1029 30.39 858 25.34 3.7 38.6 33 -11 12.1 0
13:17 1029 30.39 858 25.34 3.7 38.6 36 -10.1 13.8 0
13:18 1029 30.39 858 25.34 3.6 38.5 38 -9.5 14.9 0
13:19 1029 30.39 858 25.34 3.3 38 38 -9.8 14.4 0
13:20 1029 30.39 858 25.34 3 37.5 37 -10.2 13.7 0
13:21 1029 30.39 858 25.34 2.9 37.3 37 -10.3 13.4 0
13:22 1029 30.39 858 25.34 2.8 37 37 -10.5 13.1 0
13:23 1029 30.39 858 25.34 2.7 36.9 37 -10.4 13.2 0
13:24 1029 30.39 858 25.34 2.7 36.9 39 -9.9 14.1 0
13:25 1029 30.39 858 25.34 2.6 36.6 38 -10.3 13.5 0
13:26 1029 30.39 858 25.34 2.3 36.2 39 -10.2 13.6 0
13:27 1029 30.39 858 25.34 2.2 35.9 42 -9.5 14.9 0
13:28 1029 30.39 858 25.34 2 35.6 42 -9.5 14.9 0
13:29 1029 30.39 858 25.34 1.8 35.3 43 -9.5 15 0
13:30 1029 30.39 858 25.34 1.7 35 44 -9.2 15.5 0
13:31 1029 30.39 858 25.34 1.6 34.9 42 -9.9 14.3 0
13:32 1029 30.39 858 25.34 1.5 34.8 45 -9 15.8 0
13:33 1029 30.39 858 25.34 1.6 34.9 46 -8.7 16.3 0
13:34 1029 30.39 858 25.34 1.6 34.9 47 -8.6 16.6 0
13:35 1029 30.39 858 25.34 1.6 34.8 46 -8.8 16.1 0
13:36 1029 30.39 858 25.34 1.5 34.6 50 -8 17.6 0
13:37 1029 30.39 858 25.34 1.5 34.6 49 -8.2 17.3 0
13:38 1028 30.36 858 25.34 1.4 34.6 50 -8 17.7 0
13:39 1028 30.36 858 25.34 1.4 34.6 49 -8.1 17.4 0
13:40 1028 30.36 858 25.34 1.5 34.7 49 -8.2 17.3 0
13:41 1028 30.36 858 25.34 1.6 34.8 47 -8.6 16.6 0
13:42 1028 30.36 858 25.34 1.5 34.7 47 -8.6 16.5 0
13:43 1028 30.36 858 25.34 1.5 34.7 47 -8.8 16.2 0
13:44 1028 30.36 858 25.34 1.4 34.6 49 -8.3 17.1 0
13:45 1028 30.36 858 25.34 1.5 34.7 49 -8 17.6 0
13:46 1028 30.36 858 25.34 1.5 34.7 45 -9.2 15.5 0
13:47 1028 30.36 858 25.34 1.5 34.7 46 -8.9 15.9 0
13:48 1028 30.36 858 25.34 1.4 34.6 48 -8.5 16.7 0
13:49 1028 30.36 857 25.31 1.5 34.6 48 -8.4 16.9 0
13:50 1028 30.36 857 25.31 1.5 34.6 44 -9.7 14.6 0
13:51 1028 30.36 857 25.31 1.4 34.5 47 -8.9 16 0
13:52 1028 30.36 857 25.31 1.3 34.4 49 -8.2 17.2 0
13:53 1028 30.36 857 25.31 1.3 34.3 50 -7.9 17.7 0
13:54 1028 30.36 857 25.31 1.3 34.4 51 -7.6 18.2 0
13:55 1028 30.36 857 25.31 1.4 34.5 51 -7.8 18 0
13:56 1028 30.36 857 25.31 1.4 34.4 54 -7 19.4 0
13:57 1028 30.36 857 25.31 1.4 34.5 54 -6.8 19.7 0
13:58 1028 30.36 857 25.31 1.3 34.3 51 -7.7 18.2 0
13:59 1028 30.36 857 25.31 1.2 34.2 53 -7.3 18.8 0
14:00 1028 30.36 857 25.31 1.2 34.1 54 -7.2 19.1 0
14:01 1028 30.36 857 25.31 1.2 34.1 50 -8.2 17.2 0
14:02 1028 30.36 857 25.31 1.2 34.2 53 -7.4 18.7 0
14:03 1028 30.36 857 25.31 1.3 34.3 51 -7.8 18 0
14:04 1028 30.36 857 25.31 1.3 34.3 51 -7.6 18.2 0
14:05 1028 30.36 857 25.31 1.3 34.4 51 -7.8 18 0
14:06 1028 30.36 857 25.31 1.4 34.4 52 -7.5 18.4 0
14:07 1028 30.36 857 25.31 1.4 34.5 51 -7.7 18.1 0
14:08 1028 30.36 857 25.31 1.4 34.5 52 -7.5 18.5 0
14:09 1028 30.36 857 25.31 1.4 34.5 52 -7.3 18.8 0
14:10 1028 30.36 857 25.31 1.5 34.7 52 -7.3 18.8 0
14:11 1028 30.36 857 25.31 1.5 34.8 51 -7.4 18.6 0
14:12 1028 30.36 857 25.31 1.6 34.9 51 -7.4 18.7 0
14:13 1028 30.36 857 25.31 1.7 35 50 -7.6 18.3 0
14:14 1028 30.36 857 25.31 1.7 35.1 51 -7.3 18.8 0
14:15 1028 30.36 857 25.31 1.7 35.1 50 -7.7 18.1 0
14:16 1028 30.36 857 25.31 1.8 35.2 50 -7.6 18.3 0
14:17 1028 30.36 857 25.31 1.9 35.3 49 -7.8 18 0
14:18 1028 30.36 857 25.31 1.9 35.5 51 -7.3 18.9 0
14:19 1028 30.36 857 25.31 2 35.5 50 -7.5 18.5 0
14:20 1028 30.36 857 25.31 2 35.7 50 -7.3 18.9 0
14:21 1028 30.36 857 25.31 2.1 35.8 49 -7.6 18.3 0
14:22 1028 30.36 857 25.31 2.2 36 49 -7.5 18.6 0
14:23 1028 30.36 857 25.31 2.3 36.2 48 -7.6 18.3 0
14:24 1028 30.36 857 25.31 2.5 36.4 51 -6.5 20.2 0
14:25 1028 30.36 857 25.31 2.7 36.8 52 -6.3 20.7 0
14:26 1028 30.36 857 25.31 2.9 37.3 50 -6.6 20.2 0
14:27 1028 30.36 857 25.31 3.2 37.7 49 -6.6 20.1 0
14:28 1028 30.36 857 25.31 3.3 37.9 46 -7.1 19.2 0
14:29 1028 30.36 857 25.31 3.4 38.1 46 -7.1 19.3 0
14:30 1028 30.36 857 25.31 3.6 38.5 45 -7.4 18.7 0
14:31 1028 30.36 857 25.31 3.9 39 45 -7.1 19.2 0
14:32 1028 30.36 857 25.31 4 39.2 44 -7 19.3 0
14:33 1028 30.36 857 25.31 4.1 39.3 45 -6.7 19.9 0
14:34 1028 30.36 857 25.31 4 39.1 44 -7.3 18.8 0
14:35 1028 30.36 857 25.31 3.9 39 43 -7.4 18.6 0
14:36 1028 30.36 857 25.31 3.7 38.7 44 -7.5 18.6 0
14:37 1028 30.36 857 25.31 3.6 38.5 43 -7.8 17.9 0
14:38 1028 30.36 857 25.31 3.6 38.4 44 -7.6 18.2 0
14:39 1028 30.36 857 25.31 3.6 38.4 46 -7.1 19.2 0
14:40 1028 30.36 857 25.31 3.7 38.6 45 -7.2 19 0
14:41 1028 30.36 857 25.31 3.7 38.7 44 -7.4 18.7 0
14:42 1028 30.36 857 25.31 3.8 38.9 44 -7.3 18.8 0
14:43 1028 30.36 857 25.31 3.9 39.1 44 -7.3 18.9 0
14:44 1028 30.36 857 25.31 4.1 39.3 42 -7.7 18.1 0
14:45 1028 30.36 857 25.31 4.2 39.6 41 -8 17.6 0
14:46 1028 30.36 857 25.31 4.4 39.9 40 -8 17.7 0
14:47 1028 30.36 857 25.31 4.5 40.1 40 -7.9 17.8 0
14:48 1028 30.36 857 25.31 4.7 40.4 40 -7.7 18.1 0
14:49 1028 30.36 857 25.31 4.9 40.8 40 -7.5 18.4 0
14:50 1028 30.36 857 25.31 4.9 40.9 39 -7.8 17.9 0
14:51 1028 30.36 857 25.31 4.9 40.8 38 -8.3 17 0
14:52 1028 30.36 857 25.31 4.8 40.7 39 -8 17.6 0
14:53 1028 30.36 857 25.31 4.8 40.6 39 -8.1 17.5 0
14:54 1028 30.36 857 25.31 4.7 40.4 40 -7.7 18.2 0
14:55 1028 30.36 857 25.31 4.5 40.2 40 -7.8 17.9 0
14:56 1028 30.36 857 25.31 4.4 39.9 40 -8.1 17.3 0
14:57 1028 30.36 857 25.31 4.3 39.7 39 -8.4 17 0
14:58 1028 30.36 857 25.31 4.3 39.7 43 -7.4 18.7 0
14:59 1028 30.36 857 25.31 4.3 39.7 40 -8.3 17.1 0
15:00 1028 30.36 857 25.31 4.3 39.8 42 -7.4 18.7 0
15:01 1028 30.36 857 25.31 4.4 39.9 42 -7.5 18.5 0
15:02 1028 30.36 857 25.31 4.5 40 41 -7.6 18.3 0
15:03 1028 30.36 857 25.31 4.4 40 41 -7.6 18.4 0
15:04 1028 30.36 857 25.31 4.4 40 40 -7.9 17.7 0
15:05 1028 30.36 857 25.31 4.4 39.9 39 -8.5 16.6 0
15:06 1028 30.36 857 25.31 4.4 39.8 41 -7.7 18.1 0
15:07 1028 30.36 857 25.31 4.4 39.9 42 -7.5 18.5 0
15:08 1027 30.33 857 25.31 4.4 40 42 -7.3 18.9 0
15:09 1027 30.33 857 25.31 4.5 40.1 41 -7.5 18.5 0
15:10 1027 30.33 857 25.31 4.5 40.2 41 -7.6 18.3 0
15:11 1027 30.33 857 25.31 4.5 40.1 41 -7.7 18.1 0
15:12 1027 30.33 857 25.31 4.5 40.1 41 -7.8 18 0
15:13 1027 30.33 857 25.31 4.4 40 42 -7.3 18.8 0
15:14 1027 30.33 857 25.31 4.4 40 42 -7.4 18.6 0
15:15 1027 30.33 857 25.31 4.4 40 42 -7.5 18.4 0
15:16 1027 30.33 857 25.31 4.4 40 41 -7.8 18 0
15:17 1027 30.33 857 25.31 4.4 39.9 41 -7.7 18.1 0
15:18 1027 30.33 857 25.31 4.4 40 42 -7.3 18.9 0
15:19 1027 30.33 856 25.28 4.5 40.2 42 -7.3 18.8 0
15:20 1027 30.33 856 25.28 4.6 40.2 41 -7.4 18.6 0
15:21 1027 30.33 856 25.28 4.5 40.2 42 -7.2 19.1 0
15:22 1027 30.33 856 25.28 4.6 40.3 41 -7.4 18.6 0
15:23 1027 30.33 856 25.28 4.6 40.4 41 -7.5 18.4 0
15:24 1027 30.33 856 25.28 4.8 40.7 41 -7.4 18.7 0
15:25 1027 30.33 856 25.28 5.1 41.2 40 -7.2 19 0
15:26 1027 30.33 856 25.28 5.4 41.8 39 -7.6 18.4 0
15:27 1027 30.33 856 25.28 5.8 42.4 38 -7.3 18.8 0
15:28 1027 30.33 856 25.28 6.1 43.1 37 -7.6 18.4 0
15:29 1027 30.33 857 25.31 6.5 43.7 36 -7.4 18.7 0
15:30 1027 30.33 856 25.28 6.6 44 34 -8.3 17.1 0
15:31 1027 30.33 856 25.28 6.7 44 35 -7.8 18 0
15:32 1027 30.33 856 25.28 6.6 44 35 -7.7 18.2 0
15:33 1027 30.33 856 25.28 6.7 44 35 -7.8 18 0
15:34 1027 30.33 856 25.28 6.5 43.8 35 -7.7 18.2 0
15:35 1027 30.33 856 25.28 6.6 44 33 -8.4 16.9 0
15:36 1027 30.33 856 25.28 6.8 44.2 33 -8.3 17 0
15:37 1027 30.33 856 25.28 6.8 44.3 34 -8.1 17.4 0
15:38 1027 30.33 856 25.28 7 44.5 33 -8.3 17 0
15:39 1027 30.33 856 25.28 7.1 44.8 32 -8.3 17 0
15:40 1027 30.33 856 25.28 7.3 45.1 34 -7.6 18.3 0
15:41 1027 30.33 856 25.28 7.3 45.1 34 -7.5 18.4 0
15:42 1027 30.33 856 25.28 7.1 44.8 35 -7.3 18.9 0
15:43 1027 30.33 856 25.28 6.8 44.3 35 -7.6 18.3 0
15:44 1027 30.33 856 25.28 6.3 43.4 39 -6.7 19.9 0
15:45 1027 30.33 856 25.28 5.7 42.3 39 -7.2 19 0
15:46 1027 30.33 856 25.28 5.3 41.5 39 -7.6 18.4 0
15:47 1027 30.33 856 25.28 5 41 39 -7.8 18 0
15:48 1027 30.33 856 25.28 4.9 40.7 39 -7.9 17.8 0
15:49 1027 30.33 856 25.28 4.7 40.5 40 -7.7 18.1 0
15:50 1027 30.33 856 25.28 4.5 40.1 41 -7.7 18.2 0
15:51 1027 30.33 856 25.28 4.4 39.9 40 -8 17.6 0
15:52 1027 30.33 856 25.28 4.4 39.9 37 -8.9 16 0
15:53 1027 30.33 856 25.28 4.4 40 38 -8.5 16.7 0
15:54 1027 30.33 856 25.28 4.4 39.9 39 -8.2 17.2 0
15:55 1027 30.33 856 25.28 4.4 40 39 -8.3 17 0
15:56 1027 30.33 856 25.28 4.5 40 39 -8.5 16.7 0
15:57 1027 30.33 856 25.28 4.5 40 40 -8 17.5 0
15:58 1027 30.33 856 25.28 4.2 39.6 40 -8 17.5 0
15:59 1027 30.33 856 25.28 4 39.2 39 -8.6 16.5 0
16:00 1027 30.33 856 25.28 3.9 39 40 -8.6 16.5 0
16:01 1027 30.33 856 25.28 3.8 38.9 39 -8.8 16.1 0
16:02 1027 30.33 856 25.28 3.8 38.8 39 -9.1 15.7 0
16:03 1027 30.33 856 25.28 3.8 38.8 38 -9.1 15.6 0
16:04 1027 30.33 856 25.28 3.7 38.7 39 -9.1 15.6 0
16:05 1027 30.33 856 25.28 3.7 38.7 39 -9.1 15.6 0
16:06 1027 30.33 856 25.28 3.7 38.7 39 -9.1 15.6 0
16:07 1027 30.33 856 25.28 3.7 38.6 39 -9.1 15.7 0
16:08 1027 30.33 856 25.28 3.7 38.6 39 -9 15.7 0
16:09 1027 30.33 856 25.28 3.7 38.6 39 -9.1 15.6 0
16:10 1027 30.33 856 25.28 3.7 38.7 39 -9.1 15.6 0
16:11 1027 30.33 856 25.28 3.7 38.7 38 -9.2 15.5 0
16:12 1027 30.33 856 25.28 3.8 38.9 38 -9.3 15.3 0
16:13 1027 30.33 856 25.28 3.9 39 38 -9.3 15.3 0
16:14 1027 30.33 856 25.28 4 39.2 37 -9.3 15.3 0
16:15 1027 30.33 856 25.28 4.1 39.4 40 -8.3 17.1 0
16:16 1027 30.33 856 25.28 4.1 39.4 40 -8.4 16.9 0
16:17 1027 30.33 856 25.28 4.2 39.5 40 -8.2 17.2 0
16:18 1027 30.33 856 25.28 4.3 39.7 42 -7.5 18.6 0
16:19 1027 30.33 856 25.28 4.4 39.9 39 -8.4 16.8 0
16:20 1027 30.33 856 25.28 4.3 39.7 40 -8.3 17.1 0
16:21 1027 30.33 856 25.28 4.1 39.4 40 -8.4 16.8 0
16:22 1027 30.33 856 25.28 3.9 39 40 -8.5 16.6 0
16:23 1027 30.33 856 25.28 3.8 38.9 39 -8.8 16.2 0
16:24 1027 30.33 856 25.28 3.9 39 39 -8.8 16.1 0
16:25 1027 30.33 856 25.28 4 39.2 39 -8.7 16.3 0
16:26 1027 30.33 856 25.28 4 39.1 39 -8.8 16.2 0
16:27 1027 30.33 856 25.28 4 39.1 39 -8.8 16.1 0
16:28 1027 30.33 856 25.28 3.9 39.1 40 -8.6 16.5 0
16:29 1027 30.33 856 25.28 3.8 38.9 41 -8.3 17 0
16:30 1027 30.33 856 25.28 3.7 38.6 41 -8.4 16.8 0
16:31 1027 30.33 856 25.28 3.5 38.2 42 -8.3 17 0
16:32 1027 30.33 856 25.28 3.3 37.9 43 -8.3 17.1 0
16:33 1027 30.33 856 25.28 3.2 37.7 43 -8.3 17 0
16:34 1027 30.33 856 25.28 3.1 37.6 43 -8.2 17.2 0
16:35 1027 30.33 856 25.28 3.1 37.6 43 -8.4 16.9 0
16:36 1027 30.33 856 25.28 3.1 37.7 43 -8.3 17.1 0
16:37 1027 30.33 856 25.28 3.2 37.7 43 -8.3 17.1 0
16:38 1027 30.33 856 25.28 3.3 37.9 42 -8.4 16.9 0
16:39 1027 30.33 856 25.28 3.3 38 42 -8.4 16.9 0
16:40 1027 30.33 856 25.28 3.3 38 42 -8.3 17.1 0
16:41 1027 30.33 856 25.28 3.3 37.9 43 -8 17.6 0
16:42 1027 30.33 856 25.28 3.2 37.7 43 -8.1 17.3 0
16:43 1027 30.33 856 25.28 3.1 37.7 44 -8 17.5 0
16:44 1027 30.33 856 25.28 3.1 37.7 43 -8.1 17.4 0
16:45 1027 30.33 856 25.28 3.2 37.8 44 -8 17.5 0
16:46 1027 30.33 856 25.28 3.2 37.8 43 -8.1 17.4 0
16:47 1027 30.33 856 25.28 3.2 37.8 43 -8.1 17.5 0
16:48 1027 30.33 856 25.28 3.3 37.9 43 -8.1 17.5 0
16:49 1027 30.33 856 25.28 3.3 37.9 43 -8.1 17.4 0
16:50 1027 30.33 856 25.28 3.2 37.7 43 -8.2 17.3 0
16:51 1027 30.33 856 25.28 3 37.4 43 -8.2 17.2 0
16:52 1027 30.33 856 25.28 2.8 37 44 -8.3 17.1 0
16:53 1027 30.33 856 25.28 2.6 36.8 45 -8.2 17.2 0
16:54 1027 30.33 856 25.28 2.5 36.5 45 -8.3 17.1 0
16:55 1027 30.33 856 25.28 2.3 36.1 46 -8.3 17.1 0
16:56 1027 30.33 856 25.28 2.1 35.7 46 -8.4 16.8 0
16:57 1027 30.33 856 25.28 1.9 35.3 47 -8.3 17 0
16:58 1027 30.33 856 25.28 1.7 35 48 -8.3 17.1 0
16:59 1027 30.33 856 25.28 1.4 34.6 48 -8.3 17 0
17:00 1027 30.33 856 25.28 1.2 34.1 49 -8.3 17.1 0
19:28 1026 30.3 855 25.25 -6.8 19.8 72 -11 12.3 0 0
19:29 1026 30.3 855 25.25 -6.7 19.9 72 -11 12.2 0 0
19:30 1026 30.3 855 25.25 -6.9 19.6 72 -11.1 12 0 0
19:31 1026 30.3 855 25.25 -7 19.4 72 -11.3 11.7 0 0
19:32 1026 30.3 855 25.25 -7.1 19.3 72 -11.3 11.6 0 0
19:33 1026 30.3 855 25.25 -7.1 19.3 73 -11.2 11.9 0 0
19:34 1026 30.3 855 25.25 -7 19.4 71 -11.4 11.4 0 0
19:35 1026 30.3 855 25.25 -7.2 19.1 71 -11.5 11.2 0 0
19:36 1026 30.3 855 25.25 -7.4 18.7 72 -11.6 11.2 0 0
19:37 1026 30.3 855 25.25 -7.5 18.4 73 -11.6 11.1 0 0
19:38 1026 30.3 855 25.25 -7.6 18.3 74 -11.5 11.2 0 0
19:39 1026 30.3 855 25.25 -7.7 18.1 73 -11.7 11 0 0
19:40 1026 30.3 855 25.25 -7.9 17.9 76 -11.3 11.6 0 0
19:41 1026 30.3 855 25.25 -7.7 18.1 76 -11.2 11.9 0 0
19:42 1026 30.3 855 25.25 -7.3 18.8 74 -11.2 11.9 0 0
19:43 1026 30.3 855 25.25 -6.9 19.5 72 -11.2 11.9 0 0
19:44 1026 30.3 855 25.25 -6.7 19.9 71 -11.1 12 0 0
19:45 1026 30.3 855 25.25 -6.4 20.5 69 -11.1 12 0 0
19:46 1026 30.3 855 25.25 -6.3 20.7 69 -11.1 12 0 0
19:47 1026 30.3 855 25.25 -6.2 20.9 68 -11.2 11.9 0 0
19:48 1026 30.3 855 25.25 -6.3 20.6 68 -11.3 11.7 0 0
19:49 1026 30.3 855 25.25 -6.6 20.1 69 -11.3 11.6 0 0
19:50 1026 30.3 855 25.25 -6.9 19.5 70 -11.4 11.4 0 0
19:51 1026 30.3 855 25.25 -7.1 19.3 72 -11.4 11.5 0 0
19:52 1026 30.3 855 25.25 -7.2 19.1 72 -11.5 11.4 0 0
19:53 1026 30.3 855 25.25 -7.2 19 72 -11.5 11.2 0 0
19:54 1026 30.3 855 25.25 -7.3 18.9 72 -11.5 11.2 0 0
19:55 1026 30.3 855 25.25 -7.2 19 71 -11.6 11.2 0 0
19:56 1026 30.3 855 25.25 -7.3 18.9 71 -11.6 11 0 0
19:57 1026 30.3 855 25.25 -7.4 18.7 71 -11.7 10.9 0 0
19:58 1026 30.3 855 25.25 -7.5 18.5 71 -11.8 10.7 0 0
19:59 1026 30.3 855 25.25 -7.7 18.1 72 -11.9 10.6 0 0
20:00 1026 30.3 855 25.25 -7.8 17.9 73 -11.9 10.6 0 0
20:01 1026 30.3 855 25.25 -7.9 17.8 74 -11.8 10.7 0 0
20:02 1026 30.3 855 25.25 -7.9 17.8 74 -11.8 10.8 0 0
20:03 1026 30.3 855 25.25 -7.8 18 73 -11.7 10.9 0 0
20:04 1026 30.3 855 25.25 -7.7 18.1 73 -11.8 10.7 0 0
20:05 1026 30.3 855 25.25 -7.8 18 73 -11.9 10.7 0 0
20:06 1026 30.3 855 25.25 -7.9 17.9 73 -11.9 10.6 0 0
20:07 1026 30.3 855 25.25 -7.8 17.9 73 -11.8 10.7 0 0
20:08 1026 30.3 855 25.25 -7.8 18 73 -11.8 10.7 0 0
20:09 1026 30.3 855 25.25 -7.7 18.2 72 -11.8 10.7 0 0
20:10 1026 30.3 855 25.25 -7.7 18.1 73 -11.8 10.8 0 0
20:11 1026 30.3 855 25.25 -7.7 18.2 73 -11.7 11 0 0
20:12 1026 30.3 855 25.25 -7.6 18.4 72 -11.8 10.8 0 0
20:13 1026 30.3 855 25.25 -7.5 18.5 72 -11.7 10.9 0 0
20:14 1026 30.3 855 25.25 -7.5 18.5 72 -11.8 10.8 0 0
20:15 1026 30.3 855 25.25 -7.6 18.3 72 -11.9 10.7 0 0
20:16 1026 30.3 855 25.25 -7.7 18.2 73 -11.7 11 0 0
20:17 1026 30.3 855 25.25 -7.7 18.2 74 -11.6 11.2 0 0
20:18 1026 30.3 855 25.25 -7.6 18.4 73 -11.5 11.3 0 0
20:19 1026 30.3 855 25.25 -7.5 18.6 72 -11.6 11.1 0 0
20:20 1026 30.3 855 25.25 -7.4 18.6 72 -11.7 11 0 0
20:21 1026 30.3 855 25.25 -7.6 18.3 73 -11.6 11.2 0 0
20:22 1026 30.3 855 25.25 -7.4 18.8 72 -11.5 11.2 0 0
20:23 1026 30.3 855 25.25 -7 19.4 70 -11.7 11 0 0
20:24 1026 30.3 855 25.25 -7.1 19.2 71 -11.6 11.1 0 0
20:25 1026 30.3 855 25.25 -6.8 19.7 69 -11.6 11.1 0 0
20:26 1026 30.3 855 25.25 -6.4 20.5 67 -11.5 11.3 0 0
20:27 1026 30.3 855 25.25 -6.1 21 65 -11.7 10.9 0 0
20:28 1026 30.3 855 25.25 -6.2 20.9 64 -11.9 10.7 0 0
20:29 1026 30.3 855 25.25 -6.5 20.3 66 -11.9 10.7 0 0
20:30 1026 30.3 855 25.25 -6.7 20 67 -11.8 10.8 0 0
20:31 1026 30.3 855 25.25 -6.7 19.9 67 -11.9 10.7 0 0
20:32 1026 30.3 855 25.25 -6.8 19.8 68 -11.8 10.8 0 0
20:33 1026 30.3 855 25.25 -6.8 19.8 68 -11.8 10.8 0 0
20:34 1026 30.3 855 25.25 -6.8 19.7 69 -11.7 11 0 0
20:35 1026 30.3 855 25.25 -6.9 19.6 69 -11.7 11 0 0
20:36 1026 30.3 855 25.25 -7 19.4 70 -11.6 11.2 0 0
20:37 1026 30.3 855 25.25 -7 19.4 69 -11.7 10.9 0 0
20:38 1026 30.3 855 25.25 -7.2 19.1 71 -11.6 11.1 0 0
20:39 1026 30.3 855 25.25 -7.3 18.9 71 -11.7 10.9 0 0
20:40 1026 30.3 855 25.25 -7.4 18.8 71 -11.8 10.8 0 0
20:41 1026 30.3 855 25.25 -7.5 18.6 71 -11.8 10.7 0 0
20:42 1026 30.3 855 25.25 -7.5 18.5 72 -11.7 11 0 0
20:43 1026 30.3 855 25.25 -7.5 18.6 72 -11.6 11 0 0
20:44 1026 30.3 855 25.25 -7.5 18.4 73 -11.6 11.1 0 0
20:45 1026 30.3 855 25.25 -7.5 18.4 73 -11.6 11.1 0 0
20:46 1026 30.3 855 25.25 -7.3 18.8 73 -11.4 11.5 0 0
20:47 1026 30.3 855 25.25 -6.9 19.6 71 -11.3 11.6 0 0
20:48 1026 30.3 855 25.25 -6.4 20.5 68 -11.4 11.5 0 0
20:49 1026 30.3 855 25.25 -5.9 21.4 66 -11.4 11.5 0 0
20:50 1026 30.3 855 25.25 -5.3 22.4 63 -11.4 11.6 0 0
20:51 1026 30.3 855 25.25 -5 23.1 62 -11.3 11.7 0 0
20:52 1026 30.3 855 25.25 -4.9 23.2 62 -11.2 11.9 0 0
20:53 1026 30.3 855 25.25 -4.8 23.3 61 -11.2 11.8 0 0
20:54 1026 30.3 855 25.25 -4.8 23.4 61 -11.2 11.9 0 0
20:55 1026 30.3 855 25.25 -4.9 23.3 60 -11.4 11.5 0 0
20:56 1026 30.3 855 25.25 -5.1 22.8 62 -11.4 11.5 0 0
20:57 1026 30.3 855 25.25 -5.3 22.4 62 -11.5 11.3 0 0
20:58 1026 30.3 855 25.25 -5.5 22.1 63 -11.5 11.3 0 0
20:59 1026 30.3 855 25.25 -5.7 21.7 64 -11.5 11.3 0 0
21:00 1026 30.3 855 25.25 -5.9 21.3 66 -11.4 11.5 0 0
21:01 1026 30.3 855 25.25 -6 21.2 65 -11.5 11.3 0 0
21:02 1026 30.3 855 25.25 -6.1 21.1 66 -11.4 11.5 0 0
21:03 1026 30.3 855 25.25 -6 21.2 67 -11.2 11.8 0 0
21:04 1026 30.3 855 25.25 -5.8 21.5 66 -11.3 11.7 0 0
21:05 1026 30.3 855 25.25 -5.8 21.5 65 -11.4 11.5 0 0
21:06 1026 30.3 855 25.25 -6.1 21 66 -11.6 11.2 0 0
21:07 1026 30.3 855 25.25 -6.4 20.4 67 -11.6 11.1 0 0
21:08 1026 30.3 855 25.25 -6.5 20.2 68 -11.5 11.3 0 0
21:09 1026 30.3 855 25.25 -6.4 20.4 67 -11.7 11 0 0
21:10 1026 30.3 855 25.25 -6.4 20.5 67 -11.7 11 0 0
21:11 1026 30.3 855 25.25 -6.4 20.4 67 -11.5 11.3 0 0
21:12 1026 30.3 855 25.25 -6.3 20.7 66 -11.6 11.2 0 0
21:13 1026 30.3 855 25.25 -6.1 21 65 -11.6 11.1 0 0
21:14 1026 30.3 855 25.25 -6.1 20.9 65 -11.7 11 0 0
21:15 1026 30.3 855 25.25 -6.2 20.9 65 -11.8 10.8 0 0
21:16 1026 30.3 855 25.25 -6.3 20.7 66 -11.7 11 0 0
21:17 1026 30.3 855 25.25 -6.3 20.6 67 -11.5 11.2 0 0
21:18 1026 30.3 855 25.25 -6.3 20.7 66 -11.6 11.2 0 0
21:19 1026 30.3 855 25.25 -6.4 20.5 66 -11.7 10.9 0 0
21:20 1026 30.3 855 25.25 -6.6 20.1 66 -11.9 10.7 0 0
21:21 1026 30.3 855 25.25 -6.7 19.9 67 -11.9 10.6 0 0
21:22 1026 30.3 855 25.25 -6.9 19.6 68 -11.9 10.7 0 0
21:23 1026 30.3 855 25.25 -6.9 19.5 68 -12 10.5 0 0
21:24 1026 30.3 855 25.25 -7 19.4 68 -11.9 10.5 0 0
21:25 1026 30.3 855 25.25 -7.1 19.3 68 -12 10.5 0 0
21:26 1026 30.3 855 25.25 -7.2 19.1 69 -11.9 10.5 0 0
21:27 1026 30.3 855 25.25 -7.4 18.8 68 -12.2 10 0 0
21:28 1025 30.27 855 25.25 -7.6 18.3 69 -12.4 9.8 0 0
21:29 1026 30.3 855 25.25 -7.9 17.8 71 -12.3 9.9 0 0
21:30 1025 30.27 855 25.25 -8.1 17.5 71 -12.4 9.6 0 0
21:31 1026 30.3 855 25.25 -8.2 17.3 73 -12.2 10.1 0 0
21:32 1026 30.3 855 25.25 -8.2 17.3 74 -12.1 10.3 0 0
21:33 1026 30.3 855 25.25 -7.9 17.7 75 -11.6 11.1 0 0
21:34 1026 30.3 855 25.25 -7.5 18.5 73 -11.6 11.2 0 0
21:35 1026 30.3 855 25.25 -7.2 19 71 -11.6 11.1 0 0
21:36 1026 30.3 855 25.25 -7.1 19.2 71 -11.6 11.2 0 0
21:37 1025 30.27 855 25.25 -7.1 19.2 70 -11.7 11 0 0
21:38 1025 30.27 855 25.25 -7.2 19 70 -11.9 10.6 0 0
21:39 1025 30.27 855 25.25 -7.4 18.7 71 -11.7 10.9 0 0
21:40 1025 30.27 855 25.25 -7.4 18.7 71 -11.7 10.9 0 0
21:41 1025 30.27 855 25.25 -7.3 19 71 -11.7 10.9 0 0
21:42 1025 30.27 855 25.25 -7.2 19 70 -11.7 10.9 0 0
21:43 1025 30.27 855 25.25 -7.3 18.8 71 -11.7 11 0 0
21:44 1025 30.27 855 25.25 -7.3 18.8 71 -11.7 10.9 0 0
21:45 1025 30.27 855 25.25 -7.3 18.8 71 -11.7 11 0 0
21:46 1025 30.27 855 25.25 -7.4 18.7 71 -11.7 10.9 0 0
21:47 1025 30.27 855 25.25 -7.4 18.7 71 -11.8 10.8 0 0
21:48 1025 30.27 855 25.25 -7.5 18.5 72 -11.7 10.9 0 0
21:49 1025 30.27 855 25.25 -7.3 18.9 71 -11.7 10.9 0 0
21:50 1025 30.27 855 25.25 -6.3 20.6 66 -11.7 10.9 0 0
21:51 1025 30.27 855 25.25 -5.4 22.3 62 -11.6 11.2 0 0
21:52 1025 30.27 855 25.25 -4.8 23.3 60 -11.4 11.5 0 0
21:53 1025 30.27 855 25.25 -4.7 23.6 60 -11.4 11.5 0 0
21:54 1025 30.27 855 25.25 -4.9 23.3 60 -11.4 11.4 0 0
21:55 1025 30.27 855 25.25 -5.1 22.8 61 -11.5 11.4 0 0
21:56 1025 30.27 855 25.25 -5.4 22.4 62 -11.5 11.3 0 0
21:57 1025 30.27 855 25.25 -5.5 22.1 63 -11.5 11.3 0 0
21:58 1025 30.27 855 25.25 -5.5 22 63 -11.5 11.4 0 0
21:59 1025 30.27 855 25.25 -5.5 22.2 62 -11.6 11.1 0 0
22:00 1025 30.27 855 25.25 -5.2 22.6 61 -11.6 11.1 0 0
22:01 1026 30.3 855 25.25 -4.9 23.1 59 -11.7 11 0 0
22:02 1025 30.27 855 25.25 -4.6 23.7 58 -11.7 10.9 0 0
22:03 1025 30.27 855 25.25 -4.4 24.1 57 -11.6 11.1 0 0
22:04 1025 30.27 855 25.25 -4.3 24.2 57 -11.6 11.1 0 0
22:05 1025 30.27 855 25.25 -4.4 24.1 58 -11.5 11.2 0 0
22:06 1025 30.27 855 25.25 -4.5 23.8 58 -11.6 11.1 0 0
22:07 1025 30.27 855 25.25 -4.7 23.5 59 -11.6 11.1 0 0
22:08 1025 30.27 855 25.25 -5 23 60 -11.7 11 0 0
22:09 1025 30.27 854 25.22 -5.2 22.7 61 -11.6 11 0 0
22:10 1025 30.27 854 25.22 -5.4 22.2 62 -11.6 11.1 0 0
22:11 1025 30.27 854 25.22 -5.7 21.8 63 -11.6 11.1 0 0
22:12 1025 30.27 854 25.22 -5.8 21.6 63 -11.7 11 0 0
22:13 1025 30.27 854 25.22 -5.8 21.5 63 -11.8 10.8 0 0
22:14 1025 30.27 854 25.22 -6.1 21 64 -11.8 10.8 0 0
22:15 1025 30.27 854 25.22 -6.5 20.2 66 -11.8 10.8 0 0
22:16 1025 30.27 854 25.22 -6.7 19.9 68 -11.7 10.9 0 0
22:17 1025 30.27 854 25.22 -6.7 19.9 68 -11.8 10.8 0 0
22:18 1025 30.27 854 25.22 -6.7 20 67 -11.8 10.8 0 0
22:19 1025 30.27 855 25.25 -6.5 20.3 66 -11.8 10.8 0 0
22:20 1025 30.27 854 25.22 -6.5 20.3 66 -11.8 10.7 0 0
22:21 1025 30.27 854 25.22 -6.6 20.2 66 -11.9 10.6 0 0
22:22 1025 30.27 854 25.22 -6.8 19.8 66 -12.1 10.3 0 0
22:23 1025 30.27 854 25.22 -6.9 19.5 66 -12.2 10.1 0 0
22:24 1025 30.27 854 25.22 -6.9 19.5 66 -12.4 9.8 0 0
22:25 1025 30.27 854 25.22 -7 19.4 65 -12.5 9.6 0 0
22:26 1025 30.27 854 25.22 -7.2 19.1 66 -12.5 9.4 0 0
22:27 1025 30.27 854 25.22 -7.5 18.6 67 -12.7 9.2 0 0
22:28 1025 30.27 854 25.22 -7.6 18.3 68 -12.6 9.2 0 0
22:29 1025 30.27 854 25.22 -7.7 18.2 67 -12.7 9.2 0 0
22:30 1025 30.27 854 25.22 -7.7 18.2 67 -12.7 9.2 0 0
22:31 1025 30.27 854 25.22 -7.6 18.2 67 -12.7 9.1 0 0
22:32 1025 30.27 854 25.22 -7.6 18.4 67 -12.7 9.1 0 0
22:33 1025 30.27 854 25.22 -7.7 18.2 66 -12.9 8.8 0 0
22:34 1025 30.27 854 25.22 -7.9 17.9 68 -12.8 8.9 0 0
22:35 1025 30.27 854 25.22 -8.1 17.5 70 -12.7 9.2 0 0
22:36 1025 30.27 854 25.22 -8 17.6 69 -12.7 9.2 0 0
22:37 1025 30.27 854 25.22 -7.9 17.7 70 -12.6 9.4 0 0
22:38 1025 30.27 854 25.22 -7.8 18 70 -12.4 9.6 0 0
22:39 1025 30.27 854 25.22 -7.5 18.5 68 -12.3 9.8 0 0
22:40 1025 30.27 854 25.22 -7.2 19.1 66 -12.4 9.7 0 0
22:41 1025 30.27 854 25.22 -7.2 19.1 66 -12.4 9.7 0 0
22:42 1025 30.27 854 25.22 -7.3 18.9 67 -12.4 9.6 0 0
22:43 1025 30.27 854 25.22 -7.3 18.8 67 -12.4 9.7 0 0
22:44 1025 30.27 854 25.22 -7.5 18.5 67 -12.7 9.2 0 0
22:45 1025 30.27 854 25.22 -7.8 18 68 -12.7 9.2 0 0
22:46 1025 30.27 854 25.22 -8.1 17.5 70 -12.7 9.2 0 0
22:47 1025 30.27 854 25.22 -8.2 17.2 71 -12.5 9.5 0 0
22:48 1025 30.27 854 25.22 -8.2 17.2 71 -12.5 9.5 0 0
22:49 1025 30.27 854 25.22 -8.2 17.3 72 -12.4 9.7 0 0
22:50 1025 30.27 854 25.22 -8 17.6 72 -12.3 9.9 0 0
22:51 1025 30.27 855 25.25 -7.5 18.5 69 -12.2 10 0 0
22:52 1025 30.27 855 25.25 -7.1 19.1 68 -12.1 10.2 0 0
22:53 1025 30.27 854 25.22 -6.8 19.7 67 -12 10.4 0 0
22:54 1025 30.27 854 25.22 -6.8 19.8 67 -12 10.4 0 0
22:55 1025 30.27 854 25.22 -6.7 19.9 66 -12 10.3 0 0
22:56 1025 30.27 855 25.25 -6.6 20 64 -12.3 9.8 0 0
22:57 1025 30.27 854 25.22 -6.9 19.6 65 -12.4 9.7 0 0
22:58 1025 30.27 854 25.22 -7.2 19 66 -12.6 9.3 0 0
22:59 1025 30.27 854 25.22 -7.6 18.4 68 -12.6 9.4 0 0
23:00 1025 30.27 854 25.22 -7.7 18.1 68 -12.6 9.4 0 0
23:01 1025 30.27 854 25.22 -7.9 17.9 69 -12.5 9.4 0 0
23:02 1025 30.27 854 25.22 -7.8 18 68 -12.6 9.3 0 0
23:03 1025 30.27 854 25.22 -7.6 18.3 68 -12.5 9.4 0 0
23:04 1025 30.27 854 25.22 -7.5 18.5 67 -12.6 9.3 0 0
23:05 1025 30.27 854 25.22 -7.6 18.3 67 -12.7 9.2 0 0
23:06 1025 30.27 854 25.22 -7.7 18.2 68 -12.6 9.2 0 0
23:07 1025 30.27 854 25.22 -7.8 17.9 68 -12.7 9.2 0 0
23:08 1025 30.27 854 25.22 -8 17.6 69 -12.7 9.2 0 0
23:09 1025 30.27 854 25.22 -8.2 17.3 70 -12.7 9.1 0 0
23:10 1025 30.27 854 25.22 -8.3 17.1 71 -12.7 9.2 0 0
23:11 1025 30.27 854 25.22 -8.3 17.1 69 -12.9 8.7 0 0
23:12 1025 30.27 854 25.22 -8.5 16.8 70 -13 8.5 0 0
23:13 1025 30.27 854 25.22 -8.7 16.4 71 -13 8.6 0 0
23:14 1025 30.27 854 25.22 -8.7 16.4 71 -13.1 8.4 0 0
23:15 1025 30.27 854 25.22 -8.7 16.3 70 -13.2 8.2 0 0
23:16 1025 30.27 854 25.22 -8.8 16.1 72 -13 8.6 0 0
23:17 1025 30.27 854 25.22 -8.8 16.3 71 -13 8.6 0 0
23:18 1025 30.27 854 25.22 -8.7 16.3 72 -13 8.7 0 0
23:19 1025 30.27 854 25.22 -8.7 16.4 72 -12.9 8.8 0 0
23:20 1025 30.27 854 25.22 -8.6 16.6 71 -12.9 8.7 0 0
23:21 1025 30.27 854 25.22 -8.5 16.6 71 -12.9 8.8 0 0
23:22 1025 30.27 854 25.22 -8.4 16.9 70 -12.9 8.7 0 0
23:23 1025 30.27 854 25.22 -8.4 16.9 70 -12.9 8.7 0 0
23:24 1025 30.27 854 25.22 -8.3 17 71 -12.8 9 0 0
23:25 1025 30.27 854 25.22 -8.2 17.2 70 -12.8 9 0 0
23:26 1025 30.27 854 25.22 -8.1 17.3 69 -12.8 9 0 0
23:27 1025 30.27 854 25.22 -8.1 17.5 70 -12.6 9.3 0 0
23:28 1025 30.27 854 25.22 -7.9 17.8 69 -12.6 9.4 0 0
23:29 1025 30.27 854 25.22 -7.7 18.2 68 -12.6 9.3 0 0
23:30 1025 30.27 854 25.22 -7.6 18.4 67 -12.6 9.4 0 0
23:31 1025 30.27 854 25.22 -7.5 18.5 67 -12.6 9.3 0 0
23:32 1025 30.27 854 25.22 -7.5 18.4 66 -12.7 9.1 0 0
23:33 1025 30.27 854 25.22 -7.7 18.1 67 -12.8 8.9 0 0
23:34 1025 30.27 854 25.22 -7.9 17.8 67 -12.9 8.8 0 0
23:35 1025 30.27 854 25.22 -8 17.6 68 -13 8.6 0 0
23:36 1025 30.27 854 25.22 -8.1 17.4 68 -13.1 8.5 0 0
23:37 1025 30.27 854 25.22 -8.1 17.4 68 -13 8.6 0 0
23:38 1025 30.27 854 25.22 -8.1 17.5 67 -13.1 8.4 0 0
23:39 1025 30.27 854 25.22 -8.1 17.5 68 -13 8.6 0 0
23:40 1025 30.27 854 25.22 -8.1 17.4 68 -13 8.7 0 0
23:41 1025 30.27 854 25.22 -8.1 17.5 68 -12.9 8.7 0 0
23:42 1025 30.27 854 25.22 -8 17.7 68 -12.8 9 0 0
23:43 1025 30.27 854 25.22 -7.9 17.9 68 -12.8 8.9 0 0
23:44 1025 30.27 854 25.22 -7.9 17.8 68 -12.8 9 0 0
23:45 1025 30.27 854 25.22 -7.8 17.9 69 -12.6 9.3 0 0
23:46 1025 30.27 854 25.22 -7.7 18.1 68 -12.6 9.3 0 0
23:47 1025 30.27 854 25.22 -7.6 18.3 68 -12.6 9.3 0 0
23:48 1025 30.27 854 25.22 -7.6 18.3 67 -12.7 9.2 0 0
23:49 1025 30.27 854 25.22 -7.8 18 68 -12.7 9.1 0 0
23:50 1025 30.27 854 25.22 -8 17.7 68 -12.8 8.9 0 0
23:51 1025 30.27 854 25.22 -8.1 17.4 69 -12.9 8.7 0 0
23:52 1025 30.27 854 25.22 -8.2 17.2 69 -13 8.6 0 0
23:53 1025 30.27 854 25.22 -8.4 17 69 -13.1 8.3 0 0
23:54 1025 30.27 854 25.22 -8.4 16.9 69 -13.1 8.5 0 0
23:55 1025 30.27 854 25.22 -8.4 16.8 69 -13.2 8.3 0 0
23:56 1025 30.27 854 25.22 -8.3 17 69 -13.1 8.4 0 0
23:57 1025 30.27 854 25.22 -8.3 17 69 -13.1 8.5 0 0
23:58 1025 30.27 854 25.22 -8.3 17 69 -13.1 8.5 0 0
23:59 1025 30.27 854 25.22 -8.4 16.9 70 -12.9 8.7 0 0
24:00 1025 30.27 854 25.22 -8.3 17.1 68 -13.2 8.3 0 0